<?xml version="1.0" encoding="UTF-8" standalone="no" ?>
<gpx xmlns="http://www.topografix.com/GPX/1/1" xmlns:xsi="http://www.w3.org/2001/XMLSchema-instance" xsi:schemaLocation="http://www.topografix.com/GPX/1/1 http://www.topografix.com/GPX/1/1/gpx.xsd" version="1.1" creator="VisuGPX - https://www.visugpx.com">
  <metadata>
    <name>Ski rando Vosges 19-12-2021</name>
  </metadata>
  <trk>
    <name><![CDATA[2021-12-19 13-43-29 on AllTrails]]></name>
    <trkseg>
      <trkpt lat="48.05046" lon="7.00174">
        <ele>1066</ele>
        <time>2021-12-19T08:02:19Z</time>
      </trkpt>
      <trkpt lat="48.05056" lon="7.00163">
        <ele>1065</ele>
        <time>2021-12-19T08:02:58Z</time>
      </trkpt>
      <trkpt lat="48.05053" lon="7.00165">
        <ele>1065</ele>
        <time>2021-12-19T08:03:46Z</time>
      </trkpt>
      <trkpt lat="48.05054" lon="7.00172">
        <ele>1066</ele>
        <time>2021-12-19T08:05:08Z</time>
      </trkpt>
      <trkpt lat="48.05056" lon="7.00167">
        <ele>1066</ele>
        <time>2021-12-19T08:05:47Z</time>
      </trkpt>
      <trkpt lat="48.05056" lon="7.00163">
        <ele>1065</ele>
        <time>2021-12-19T08:06:21Z</time>
      </trkpt>
      <trkpt lat="48.05057" lon="7.00166">
        <ele>1066</ele>
        <time>2021-12-19T08:06:54Z</time>
      </trkpt>
      <trkpt lat="48.05055" lon="7.00165">
        <ele>1065</ele>
        <time>2021-12-19T08:07:04Z</time>
      </trkpt>
      <trkpt lat="48.05053" lon="7.00164">
        <ele>1065</ele>
        <time>2021-12-19T08:07:06Z</time>
      </trkpt>
      <trkpt lat="48.05045" lon="7.00158">
        <ele>1065</ele>
        <time>2021-12-19T08:07:20Z</time>
      </trkpt>
      <trkpt lat="48.0504" lon="7.00157">
        <ele>1065</ele>
        <time>2021-12-19T08:07:33Z</time>
      </trkpt>
      <trkpt lat="48.0504" lon="7.00159">
        <ele>1065</ele>
        <time>2021-12-19T08:08:00Z</time>
      </trkpt>
      <trkpt lat="48.0504" lon="7.0016">
        <ele>1065</ele>
        <time>2021-12-19T08:08:34Z</time>
      </trkpt>
      <trkpt lat="48.05037" lon="7.00169">
        <ele>1066</ele>
        <time>2021-12-19T08:08:51Z</time>
      </trkpt>
      <trkpt lat="48.05034" lon="7.00191">
        <ele>1068</ele>
        <time>2021-12-19T08:09:08Z</time>
      </trkpt>
      <trkpt lat="48.05035" lon="7.00216">
        <ele>1072</ele>
        <time>2021-12-19T08:09:27Z</time>
      </trkpt>
      <trkpt lat="48.05034" lon="7.00238">
        <ele>1075</ele>
        <time>2021-12-19T08:09:44Z</time>
      </trkpt>
      <trkpt lat="48.05035" lon="7.00261">
        <ele>1078</ele>
        <time>2021-12-19T08:10:02Z</time>
      </trkpt>
      <trkpt lat="48.05035" lon="7.00282">
        <ele>1081</ele>
        <time>2021-12-19T08:10:18Z</time>
      </trkpt>
      <trkpt lat="48.05033" lon="7.00305">
        <ele>1085</ele>
        <time>2021-12-19T08:10:36Z</time>
      </trkpt>
      <trkpt lat="48.05031" lon="7.00327">
        <ele>1089</ele>
        <time>2021-12-19T08:10:54Z</time>
      </trkpt>
      <trkpt lat="48.05028" lon="7.00347">
        <ele>1093</ele>
        <time>2021-12-19T08:11:10Z</time>
      </trkpt>
      <trkpt lat="48.05028" lon="7.00351">
        <ele>1094</ele>
        <time>2021-12-19T08:11:13Z</time>
      </trkpt>
      <trkpt lat="48.05026" lon="7.00372">
        <ele>1097</ele>
        <time>2021-12-19T08:11:32Z</time>
      </trkpt>
      <trkpt lat="48.05024" lon="7.00388">
        <ele>1099</ele>
        <time>2021-12-19T08:11:49Z</time>
      </trkpt>
      <trkpt lat="48.0502" lon="7.00403">
        <ele>1102</ele>
        <time>2021-12-19T08:12:05Z</time>
      </trkpt>
      <trkpt lat="48.05018" lon="7.00417">
        <ele>1105</ele>
        <time>2021-12-19T08:12:23Z</time>
      </trkpt>
      <trkpt lat="48.05022" lon="7.00432">
        <ele>1108</ele>
        <time>2021-12-19T08:12:38Z</time>
      </trkpt>
      <trkpt lat="48.05026" lon="7.00446">
        <ele>1112</ele>
        <time>2021-12-19T08:12:53Z</time>
      </trkpt>
      <trkpt lat="48.0503" lon="7.00464">
        <ele>1115</ele>
        <time>2021-12-19T08:13:10Z</time>
      </trkpt>
      <trkpt lat="48.05028" lon="7.00479">
        <ele>1118</ele>
        <time>2021-12-19T08:13:29Z</time>
      </trkpt>
      <trkpt lat="48.05019" lon="7.00487">
        <ele>1119</ele>
        <time>2021-12-19T08:13:46Z</time>
      </trkpt>
      <trkpt lat="48.0501" lon="7.00495">
        <ele>1121</ele>
        <time>2021-12-19T08:14:04Z</time>
      </trkpt>
      <trkpt lat="48.05002" lon="7.00501">
        <ele>1122</ele>
        <time>2021-12-19T08:14:19Z</time>
      </trkpt>
      <trkpt lat="48.04997" lon="7.00511">
        <ele>1124</ele>
        <time>2021-12-19T08:14:33Z</time>
      </trkpt>
      <trkpt lat="48.04989" lon="7.00516">
        <ele>1126</ele>
        <time>2021-12-19T08:14:49Z</time>
      </trkpt>
      <trkpt lat="48.04981" lon="7.00527">
        <ele>1128</ele>
        <time>2021-12-19T08:15:06Z</time>
      </trkpt>
      <trkpt lat="48.04972" lon="7.00534">
        <ele>1130</ele>
        <time>2021-12-19T08:15:23Z</time>
      </trkpt>
      <trkpt lat="48.04973" lon="7.00544">
        <ele>1133</ele>
        <time>2021-12-19T08:15:40Z</time>
      </trkpt>
      <trkpt lat="48.04982" lon="7.00548">
        <ele>1134</ele>
        <time>2021-12-19T08:15:57Z</time>
      </trkpt>
      <trkpt lat="48.0499" lon="7.00559">
        <ele>1137</ele>
        <time>2021-12-19T08:16:13Z</time>
      </trkpt>
      <trkpt lat="48.04996" lon="7.00573">
        <ele>1140</ele>
        <time>2021-12-19T08:16:31Z</time>
      </trkpt>
      <trkpt lat="48.05001" lon="7.00584">
        <ele>1143</ele>
        <time>2021-12-19T08:16:45Z</time>
      </trkpt>
      <trkpt lat="48.05004" lon="7.006">
        <ele>1146</ele>
        <time>2021-12-19T08:17:04Z</time>
      </trkpt>
      <trkpt lat="48.05009" lon="7.00614">
        <ele>1149</ele>
        <time>2021-12-19T08:17:21Z</time>
      </trkpt>
      <trkpt lat="48.05004" lon="7.00621">
        <ele>1151</ele>
        <time>2021-12-19T08:17:37Z</time>
      </trkpt>
      <trkpt lat="48.04995" lon="7.00629">
        <ele>1154</ele>
        <time>2021-12-19T08:17:57Z</time>
      </trkpt>
      <trkpt lat="48.04986" lon="7.00636">
        <ele>1156</ele>
        <time>2021-12-19T08:18:15Z</time>
      </trkpt>
      <trkpt lat="48.04977" lon="7.00645">
        <ele>1159</ele>
        <time>2021-12-19T08:18:31Z</time>
      </trkpt>
      <trkpt lat="48.04969" lon="7.00651">
        <ele>1161</ele>
        <time>2021-12-19T08:18:48Z</time>
      </trkpt>
      <trkpt lat="48.04961" lon="7.00656">
        <ele>1163</ele>
        <time>2021-12-19T08:19:04Z</time>
      </trkpt>
      <trkpt lat="48.04959" lon="7.00665">
        <ele>1164</ele>
        <time>2021-12-19T08:19:17Z</time>
      </trkpt>
      <trkpt lat="48.04963" lon="7.00676">
        <ele>1166</ele>
        <time>2021-12-19T08:19:33Z</time>
      </trkpt>
      <trkpt lat="48.04965" lon="7.00692">
        <ele>1169</ele>
        <time>2021-12-19T08:19:51Z</time>
      </trkpt>
      <trkpt lat="48.04966" lon="7.0071">
        <ele>1174</ele>
        <time>2021-12-19T08:20:12Z</time>
      </trkpt>
      <trkpt lat="48.0497" lon="7.00729">
        <ele>1178</ele>
        <time>2021-12-19T08:20:31Z</time>
      </trkpt>
      <trkpt lat="48.04975" lon="7.00745">
        <ele>1182</ele>
        <time>2021-12-19T08:20:48Z</time>
      </trkpt>
      <trkpt lat="48.0498" lon="7.00759">
        <ele>1185</ele>
        <time>2021-12-19T08:21:04Z</time>
      </trkpt>
      <trkpt lat="48.04979" lon="7.00775">
        <ele>1189</ele>
        <time>2021-12-19T08:21:23Z</time>
      </trkpt>
      <trkpt lat="48.04978" lon="7.00789">
        <ele>1192</ele>
        <time>2021-12-19T08:21:40Z</time>
      </trkpt>
      <trkpt lat="48.04976" lon="7.00801">
        <ele>1195</ele>
        <time>2021-12-19T08:21:57Z</time>
      </trkpt>
      <trkpt lat="48.04967" lon="7.00805">
        <ele>1195</ele>
        <time>2021-12-19T08:22:16Z</time>
      </trkpt>
      <trkpt lat="48.04959" lon="7.00809">
        <ele>1196</ele>
        <time>2021-12-19T08:22:30Z</time>
      </trkpt>
      <trkpt lat="48.0495" lon="7.00814">
        <ele>1197</ele>
        <time>2021-12-19T08:22:48Z</time>
      </trkpt>
      <trkpt lat="48.0494" lon="7.0082">
        <ele>1199</ele>
        <time>2021-12-19T08:23:06Z</time>
      </trkpt>
      <trkpt lat="48.04931" lon="7.00824">
        <ele>1201</ele>
        <time>2021-12-19T08:23:22Z</time>
      </trkpt>
      <trkpt lat="48.04922" lon="7.00829">
        <ele>1203</ele>
        <time>2021-12-19T08:23:38Z</time>
      </trkpt>
      <trkpt lat="48.04916" lon="7.00834">
        <ele>1205</ele>
        <time>2021-12-19T08:23:53Z</time>
      </trkpt>
      <trkpt lat="48.04916" lon="7.00848">
        <ele>1208</ele>
        <time>2021-12-19T08:24:07Z</time>
      </trkpt>
      <trkpt lat="48.04919" lon="7.00872">
        <ele>1212</ele>
        <time>2021-12-19T08:24:31Z</time>
      </trkpt>
      <trkpt lat="48.04922" lon="7.00893">
        <ele>1216</ele>
        <time>2021-12-19T08:24:53Z</time>
      </trkpt>
      <trkpt lat="48.04926" lon="7.00905">
        <ele>1218</ele>
        <time>2021-12-19T08:25:11Z</time>
      </trkpt>
      <trkpt lat="48.04927" lon="7.00917">
        <ele>1220</ele>
        <time>2021-12-19T08:25:28Z</time>
      </trkpt>
      <trkpt lat="48.04916" lon="7.00923">
        <ele>1223</ele>
        <time>2021-12-19T08:25:43Z</time>
      </trkpt>
      <trkpt lat="48.04906" lon="7.00926">
        <ele>1224</ele>
        <time>2021-12-19T08:25:59Z</time>
      </trkpt>
      <trkpt lat="48.04895" lon="7.00926">
        <ele>1225</ele>
        <time>2021-12-19T08:26:19Z</time>
      </trkpt>
      <trkpt lat="48.04886" lon="7.00926">
        <ele>1226</ele>
        <time>2021-12-19T08:26:33Z</time>
      </trkpt>
      <trkpt lat="48.04878" lon="7.00925">
        <ele>1227</ele>
        <time>2021-12-19T08:26:50Z</time>
      </trkpt>
      <trkpt lat="48.04874" lon="7.00922">
        <ele>1228</ele>
        <time>2021-12-19T08:27:04Z</time>
      </trkpt>
      <trkpt lat="48.04868" lon="7.00924">
        <ele>1229</ele>
        <time>2021-12-19T08:27:22Z</time>
      </trkpt>
      <trkpt lat="48.04862" lon="7.00921">
        <ele>1230</ele>
        <time>2021-12-19T08:27:30Z</time>
      </trkpt>
      <trkpt lat="48.0486" lon="7.0092">
        <ele>1230</ele>
        <time>2021-12-19T08:27:32Z</time>
      </trkpt>
      <trkpt lat="48.04849" lon="7.00911">
        <ele>1231</ele>
        <time>2021-12-19T08:27:48Z</time>
      </trkpt>
      <trkpt lat="48.04838" lon="7.00908">
        <ele>1232</ele>
        <time>2021-12-19T08:28:01Z</time>
      </trkpt>
      <trkpt lat="48.04827" lon="7.00904">
        <ele>1233</ele>
        <time>2021-12-19T08:28:17Z</time>
      </trkpt>
      <trkpt lat="48.04815" lon="7.00899">
        <ele>1233</ele>
        <time>2021-12-19T08:28:32Z</time>
      </trkpt>
      <trkpt lat="48.048" lon="7.0089">
        <ele>1233</ele>
        <time>2021-12-19T08:28:50Z</time>
      </trkpt>
      <trkpt lat="48.04785" lon="7.00882">
        <ele>1232</ele>
        <time>2021-12-19T08:29:09Z</time>
      </trkpt>
      <trkpt lat="48.04784" lon="7.00882">
        <ele>1232</ele>
        <time>2021-12-19T08:29:10Z</time>
      </trkpt>
      <trkpt lat="48.04781" lon="7.0088">
        <ele>1232</ele>
        <time>2021-12-19T08:29:13Z</time>
      </trkpt>
      <trkpt lat="48.04767" lon="7.00874">
        <ele>1233</ele>
        <time>2021-12-19T08:29:29Z</time>
      </trkpt>
      <trkpt lat="48.04754" lon="7.00869">
        <ele>1233</ele>
        <time>2021-12-19T08:29:46Z</time>
      </trkpt>
      <trkpt lat="48.04735" lon="7.00859">
        <ele>1233</ele>
        <time>2021-12-19T08:30:06Z</time>
      </trkpt>
      <trkpt lat="48.04726" lon="7.00856">
        <ele>1234</ele>
        <time>2021-12-19T08:30:18Z</time>
      </trkpt>
      <trkpt lat="48.04711" lon="7.00848">
        <ele>1236</ele>
        <time>2021-12-19T08:30:36Z</time>
      </trkpt>
      <trkpt lat="48.04704" lon="7.00847">
        <ele>1237</ele>
        <time>2021-12-19T08:30:43Z</time>
      </trkpt>
      <trkpt lat="48.04688" lon="7.00842">
        <ele>1238</ele>
        <time>2021-12-19T08:30:58Z</time>
      </trkpt>
      <trkpt lat="48.04673" lon="7.00843">
        <ele>1240</ele>
        <time>2021-12-19T08:31:14Z</time>
      </trkpt>
      <trkpt lat="48.04659" lon="7.00844">
        <ele>1241</ele>
        <time>2021-12-19T08:31:28Z</time>
      </trkpt>
      <trkpt lat="48.04643" lon="7.00846">
        <ele>1243</ele>
        <time>2021-12-19T08:31:44Z</time>
      </trkpt>
      <trkpt lat="48.04629" lon="7.00848">
        <ele>1245</ele>
        <time>2021-12-19T08:31:59Z</time>
      </trkpt>
      <trkpt lat="48.04614" lon="7.00849">
        <ele>1246</ele>
        <time>2021-12-19T08:32:14Z</time>
      </trkpt>
      <trkpt lat="48.04597" lon="7.00849">
        <ele>1248</ele>
        <time>2021-12-19T08:32:31Z</time>
      </trkpt>
      <trkpt lat="48.04579" lon="7.00841">
        <ele>1248</ele>
        <time>2021-12-19T08:32:51Z</time>
      </trkpt>
      <trkpt lat="48.04566" lon="7.00832">
        <ele>1248</ele>
        <time>2021-12-19T08:33:07Z</time>
      </trkpt>
      <trkpt lat="48.04554" lon="7.00821">
        <ele>1247</ele>
        <time>2021-12-19T08:33:24Z</time>
      </trkpt>
      <trkpt lat="48.04541" lon="7.0081">
        <ele>1246</ele>
        <time>2021-12-19T08:33:40Z</time>
      </trkpt>
      <trkpt lat="48.04529" lon="7.00801">
        <ele>1245</ele>
        <time>2021-12-19T08:33:55Z</time>
      </trkpt>
      <trkpt lat="48.04511" lon="7.00787">
        <ele>1246</ele>
        <time>2021-12-19T08:34:14Z</time>
      </trkpt>
      <trkpt lat="48.04496" lon="7.00776">
        <ele>1247</ele>
        <time>2021-12-19T08:34:31Z</time>
      </trkpt>
      <trkpt lat="48.04487" lon="7.00768">
        <ele>1249</ele>
        <time>2021-12-19T08:34:45Z</time>
      </trkpt>
      <trkpt lat="48.04484" lon="7.00765">
        <ele>1250</ele>
        <time>2021-12-19T08:34:48Z</time>
      </trkpt>
      <trkpt lat="48.04468" lon="7.00753">
        <ele>1253</ele>
        <time>2021-12-19T08:35:06Z</time>
      </trkpt>
      <trkpt lat="48.04453" lon="7.00741">
        <ele>1254</ele>
        <time>2021-12-19T08:35:23Z</time>
      </trkpt>
      <trkpt lat="48.04435" lon="7.00726">
        <ele>1257</ele>
        <time>2021-12-19T08:35:43Z</time>
      </trkpt>
      <trkpt lat="48.04422" lon="7.00715">
        <ele>1258</ele>
        <time>2021-12-19T08:35:59Z</time>
      </trkpt>
      <trkpt lat="48.04411" lon="7.00704">
        <ele>1258</ele>
        <time>2021-12-19T08:36:15Z</time>
      </trkpt>
      <trkpt lat="48.04393" lon="7.00692">
        <ele>1260</ele>
        <time>2021-12-19T08:36:34Z</time>
      </trkpt>
      <trkpt lat="48.04376" lon="7.00678">
        <ele>1261</ele>
        <time>2021-12-19T08:36:53Z</time>
      </trkpt>
      <trkpt lat="48.04369" lon="7.00673">
        <ele>1261</ele>
        <time>2021-12-19T08:37:02Z</time>
      </trkpt>
      <trkpt lat="48.04355" lon="7.00664">
        <ele>1262</ele>
        <time>2021-12-19T08:37:20Z</time>
      </trkpt>
      <trkpt lat="48.0435" lon="7.00662">
        <ele>1262</ele>
        <time>2021-12-19T08:37:27Z</time>
      </trkpt>
      <trkpt lat="48.04343" lon="7.00656">
        <ele>1262</ele>
        <time>2021-12-19T08:37:35Z</time>
      </trkpt>
      <trkpt lat="48.04326" lon="7.00645">
        <ele>1262</ele>
        <time>2021-12-19T08:37:54Z</time>
      </trkpt>
      <trkpt lat="48.0431" lon="7.00641">
        <ele>1263</ele>
        <time>2021-12-19T08:38:11Z</time>
      </trkpt>
      <trkpt lat="48.04294" lon="7.00642">
        <ele>1265</ele>
        <time>2021-12-19T08:38:29Z</time>
      </trkpt>
      <trkpt lat="48.04281" lon="7.00645">
        <ele>1266</ele>
        <time>2021-12-19T08:38:45Z</time>
      </trkpt>
      <trkpt lat="48.04264" lon="7.00647">
        <ele>1267</ele>
        <time>2021-12-19T08:39:03Z</time>
      </trkpt>
      <trkpt lat="48.0425" lon="7.00652">
        <ele>1268</ele>
        <time>2021-12-19T08:39:18Z</time>
      </trkpt>
      <trkpt lat="48.04237" lon="7.00664">
        <ele>1270</ele>
        <time>2021-12-19T08:39:36Z</time>
      </trkpt>
      <trkpt lat="48.04219" lon="7.00678">
        <ele>1270</ele>
        <time>2021-12-19T08:39:57Z</time>
      </trkpt>
      <trkpt lat="48.04205" lon="7.0069">
        <ele>1270</ele>
        <time>2021-12-19T08:40:14Z</time>
      </trkpt>
      <trkpt lat="48.04191" lon="7.00705">
        <ele>1270</ele>
        <time>2021-12-19T08:40:32Z</time>
      </trkpt>
      <trkpt lat="48.04178" lon="7.00724">
        <ele>1272</ele>
        <time>2021-12-19T08:40:51Z</time>
      </trkpt>
      <trkpt lat="48.04168" lon="7.00745">
        <ele>1275</ele>
        <time>2021-12-19T08:41:09Z</time>
      </trkpt>
      <trkpt lat="48.04164" lon="7.00756">
        <ele>1276</ele>
        <time>2021-12-19T08:41:25Z</time>
      </trkpt>
      <trkpt lat="48.04154" lon="7.0078">
        <ele>1276</ele>
        <time>2021-12-19T08:41:45Z</time>
      </trkpt>
      <trkpt lat="48.04145" lon="7.008">
        <ele>1277</ele>
        <time>2021-12-19T08:42:01Z</time>
      </trkpt>
      <trkpt lat="48.04136" lon="7.00826">
        <ele>1277</ele>
        <time>2021-12-19T08:42:21Z</time>
      </trkpt>
      <trkpt lat="48.04134" lon="7.0084">
        <ele>1279</ele>
        <time>2021-12-19T08:42:39Z</time>
      </trkpt>
      <trkpt lat="48.04131" lon="7.00869">
        <ele>1281</ele>
        <time>2021-12-19T08:42:59Z</time>
      </trkpt>
      <trkpt lat="48.0413" lon="7.00896">
        <ele>1283</ele>
        <time>2021-12-19T08:43:19Z</time>
      </trkpt>
      <trkpt lat="48.04128" lon="7.00924">
        <ele>1284</ele>
        <time>2021-12-19T08:43:39Z</time>
      </trkpt>
      <trkpt lat="48.04127" lon="7.00948">
        <ele>1284</ele>
        <time>2021-12-19T08:43:57Z</time>
      </trkpt>
      <trkpt lat="48.04125" lon="7.0097">
        <ele>1285</ele>
        <time>2021-12-19T08:44:12Z</time>
      </trkpt>
      <trkpt lat="48.04126" lon="7.00996">
        <ele>1287</ele>
        <time>2021-12-19T08:44:30Z</time>
      </trkpt>
      <trkpt lat="48.04129" lon="7.0102">
        <ele>1289</ele>
        <time>2021-12-19T08:44:49Z</time>
      </trkpt>
      <trkpt lat="48.04131" lon="7.01029">
        <ele>1289</ele>
        <time>2021-12-19T08:44:56Z</time>
      </trkpt>
      <trkpt lat="48.04135" lon="7.01052">
        <ele>1291</ele>
        <time>2021-12-19T08:45:14Z</time>
      </trkpt>
      <trkpt lat="48.04137" lon="7.01075">
        <ele>1294</ele>
        <time>2021-12-19T08:45:32Z</time>
      </trkpt>
      <trkpt lat="48.04128" lon="7.01097">
        <ele>1295</ele>
        <time>2021-12-19T08:45:52Z</time>
      </trkpt>
      <trkpt lat="48.04121" lon="7.01115">
        <ele>1297</ele>
        <time>2021-12-19T08:46:10Z</time>
      </trkpt>
      <trkpt lat="48.04116" lon="7.01127">
        <ele>1299</ele>
        <time>2021-12-19T08:46:25Z</time>
      </trkpt>
      <trkpt lat="48.04105" lon="7.01138">
        <ele>1301</ele>
        <time>2021-12-19T08:46:42Z</time>
      </trkpt>
      <trkpt lat="48.04096" lon="7.01154">
        <ele>1304</ele>
        <time>2021-12-19T08:47:00Z</time>
      </trkpt>
      <trkpt lat="48.04088" lon="7.01173">
        <ele>1307</ele>
        <time>2021-12-19T08:47:20Z</time>
      </trkpt>
      <trkpt lat="48.04081" lon="7.01191">
        <ele>1308</ele>
        <time>2021-12-19T08:47:38Z</time>
      </trkpt>
      <trkpt lat="48.04074" lon="7.01208">
        <ele>1310</ele>
        <time>2021-12-19T08:47:56Z</time>
      </trkpt>
      <trkpt lat="48.04067" lon="7.01221">
        <ele>1311</ele>
        <time>2021-12-19T08:48:11Z</time>
      </trkpt>
      <trkpt lat="48.04059" lon="7.01236">
        <ele>1313</ele>
        <time>2021-12-19T08:48:28Z</time>
      </trkpt>
      <trkpt lat="48.04049" lon="7.01256">
        <ele>1316</ele>
        <time>2021-12-19T08:48:48Z</time>
      </trkpt>
      <trkpt lat="48.0404" lon="7.01273">
        <ele>1319</ele>
        <time>2021-12-19T08:49:08Z</time>
      </trkpt>
      <trkpt lat="48.0403" lon="7.0129">
        <ele>1322</ele>
        <time>2021-12-19T08:49:26Z</time>
      </trkpt>
      <trkpt lat="48.04021" lon="7.01306">
        <ele>1325</ele>
        <time>2021-12-19T08:49:44Z</time>
      </trkpt>
      <trkpt lat="48.0401" lon="7.01323">
        <ele>1325</ele>
        <time>2021-12-19T08:50:04Z</time>
      </trkpt>
      <trkpt lat="48.03997" lon="7.01335">
        <ele>1326</ele>
        <time>2021-12-19T08:50:23Z</time>
      </trkpt>
      <trkpt lat="48.03985" lon="7.01348">
        <ele>1327</ele>
        <time>2021-12-19T08:50:40Z</time>
      </trkpt>
      <trkpt lat="48.03971" lon="7.01361">
        <ele>1329</ele>
        <time>2021-12-19T08:50:59Z</time>
      </trkpt>
      <trkpt lat="48.03956" lon="7.01379">
        <ele>1332</ele>
        <time>2021-12-19T08:51:21Z</time>
      </trkpt>
      <trkpt lat="48.03941" lon="7.01393">
        <ele>1335</ele>
        <time>2021-12-19T08:51:40Z</time>
      </trkpt>
      <trkpt lat="48.03927" lon="7.01407">
        <ele>1336</ele>
        <time>2021-12-19T08:51:59Z</time>
      </trkpt>
      <trkpt lat="48.03913" lon="7.01421">
        <ele>1338</ele>
        <time>2021-12-19T08:52:17Z</time>
      </trkpt>
      <trkpt lat="48.03899" lon="7.01435">
        <ele>1338</ele>
        <time>2021-12-19T08:52:36Z</time>
      </trkpt>
      <trkpt lat="48.03886" lon="7.01449">
        <ele>1340</ele>
        <time>2021-12-19T08:52:55Z</time>
      </trkpt>
      <trkpt lat="48.03875" lon="7.01462">
        <ele>1342</ele>
        <time>2021-12-19T08:53:13Z</time>
      </trkpt>
      <trkpt lat="48.03862" lon="7.01478">
        <ele>1344</ele>
        <time>2021-12-19T08:53:34Z</time>
      </trkpt>
      <trkpt lat="48.03849" lon="7.01488">
        <ele>1346</ele>
        <time>2021-12-19T08:53:52Z</time>
      </trkpt>
      <trkpt lat="48.03838" lon="7.01501">
        <ele>1348</ele>
        <time>2021-12-19T08:54:10Z</time>
      </trkpt>
      <trkpt lat="48.03828" lon="7.01521">
        <ele>1350</ele>
        <time>2021-12-19T08:54:31Z</time>
      </trkpt>
      <trkpt lat="48.03821" lon="7.01537">
        <ele>1351</ele>
        <time>2021-12-19T08:54:49Z</time>
      </trkpt>
      <trkpt lat="48.03814" lon="7.01558">
        <ele>1351</ele>
        <time>2021-12-19T08:55:08Z</time>
      </trkpt>
      <trkpt lat="48.03803" lon="7.01563">
        <ele>1350</ele>
        <time>2021-12-19T08:55:24Z</time>
      </trkpt>
      <trkpt lat="48.03798" lon="7.01587">
        <ele>1350</ele>
        <time>2021-12-19T08:55:42Z</time>
      </trkpt>
      <trkpt lat="48.0379" lon="7.01608">
        <ele>1350</ele>
        <time>2021-12-19T08:56:01Z</time>
      </trkpt>
      <trkpt lat="48.03785" lon="7.01613">
        <ele>1350</ele>
        <time>2021-12-19T08:56:07Z</time>
      </trkpt>
      <trkpt lat="48.03771" lon="7.01623">
        <ele>1350</ele>
        <time>2021-12-19T08:56:25Z</time>
      </trkpt>
      <trkpt lat="48.03767" lon="7.01636">
        <ele>1349</ele>
        <time>2021-12-19T08:56:43Z</time>
      </trkpt>
      <trkpt lat="48.03768" lon="7.01637">
        <ele>1349</ele>
        <time>2021-12-19T08:57:03Z</time>
      </trkpt>
      <trkpt lat="48.0377" lon="7.01634">
        <ele>1349</ele>
        <time>2021-12-19T08:57:35Z</time>
      </trkpt>
      <trkpt lat="48.03765" lon="7.01638">
        <ele>1349</ele>
        <time>2021-12-19T08:57:50Z</time>
      </trkpt>
      <trkpt lat="48.03764" lon="7.01637">
        <ele>1349</ele>
        <time>2021-12-19T08:58:19Z</time>
      </trkpt>
      <trkpt lat="48.03764" lon="7.01635">
        <ele>1349</ele>
        <time>2021-12-19T08:58:52Z</time>
      </trkpt>
      <trkpt lat="48.03764" lon="7.01635">
        <ele>1349</ele>
        <time>2021-12-19T08:59:51Z</time>
      </trkpt>
      <trkpt lat="48.03763" lon="7.01635">
        <ele>1349</ele>
        <time>2021-12-19T09:00:44Z</time>
      </trkpt>
      <trkpt lat="48.03764" lon="7.01635">
        <ele>1349</ele>
        <time>2021-12-19T09:02:09Z</time>
      </trkpt>
      <trkpt lat="48.03768" lon="7.01636">
        <ele>1349</ele>
        <time>2021-12-19T09:02:33Z</time>
      </trkpt>
      <trkpt lat="48.03763" lon="7.01635">
        <ele>1349</ele>
        <time>2021-12-19T09:03:02Z</time>
      </trkpt>
      <trkpt lat="48.03763" lon="7.01635">
        <ele>1349</ele>
        <time>2021-12-19T09:03:40Z</time>
      </trkpt>
      <trkpt lat="48.03761" lon="7.01636">
        <ele>1349</ele>
        <time>2021-12-19T09:05:17Z</time>
      </trkpt>
      <trkpt lat="48.03764" lon="7.01637">
        <ele>1349</ele>
        <time>2021-12-19T09:05:45Z</time>
      </trkpt>
      <trkpt lat="48.03765" lon="7.01636">
        <ele>1349</ele>
        <time>2021-12-19T09:06:09Z</time>
      </trkpt>
      <trkpt lat="48.03766" lon="7.01636">
        <ele>1349</ele>
        <time>2021-12-19T09:06:32Z</time>
      </trkpt>
      <trkpt lat="48.03766" lon="7.01638">
        <ele>1349</ele>
        <time>2021-12-19T09:06:44Z</time>
      </trkpt>
      <trkpt lat="48.03767" lon="7.01648">
        <ele>1348</ele>
        <time>2021-12-19T09:06:49Z</time>
      </trkpt>
      <trkpt lat="48.03776" lon="7.0168">
        <ele>1348</ele>
        <time>2021-12-19T09:07:00Z</time>
      </trkpt>
      <trkpt lat="48.03778" lon="7.01697">
        <ele>1348</ele>
        <time>2021-12-19T09:07:05Z</time>
      </trkpt>
      <trkpt lat="48.03784" lon="7.01715">
        <ele>1349</ele>
        <time>2021-12-19T09:07:11Z</time>
      </trkpt>
      <trkpt lat="48.03794" lon="7.0174">
        <ele>1347</ele>
        <time>2021-12-19T09:07:19Z</time>
      </trkpt>
      <trkpt lat="48.03795" lon="7.01764">
        <ele>1343</ele>
        <time>2021-12-19T09:07:25Z</time>
      </trkpt>
      <trkpt lat="48.03797" lon="7.01783">
        <ele>1340</ele>
        <time>2021-12-19T09:07:29Z</time>
      </trkpt>
      <trkpt lat="48.038" lon="7.01801">
        <ele>1336</ele>
        <time>2021-12-19T09:07:33Z</time>
      </trkpt>
      <trkpt lat="48.03799" lon="7.01816">
        <ele>1333</ele>
        <time>2021-12-19T09:07:36Z</time>
      </trkpt>
      <trkpt lat="48.03798" lon="7.01843">
        <ele>1329</ele>
        <time>2021-12-19T09:07:42Z</time>
      </trkpt>
      <trkpt lat="48.0379" lon="7.01873">
        <ele>1327</ele>
        <time>2021-12-19T09:07:47Z</time>
      </trkpt>
      <trkpt lat="48.03779" lon="7.01894">
        <ele>1326</ele>
        <time>2021-12-19T09:07:51Z</time>
      </trkpt>
      <trkpt lat="48.03767" lon="7.01915">
        <ele>1326</ele>
        <time>2021-12-19T09:07:55Z</time>
      </trkpt>
      <trkpt lat="48.03764" lon="7.01919">
        <ele>1325</ele>
        <time>2021-12-19T09:07:56Z</time>
      </trkpt>
      <trkpt lat="48.03762" lon="7.01941">
        <ele>1322</ele>
        <time>2021-12-19T09:08:00Z</time>
      </trkpt>
      <trkpt lat="48.03761" lon="7.01967">
        <ele>1317</ele>
        <time>2021-12-19T09:08:06Z</time>
      </trkpt>
      <trkpt lat="48.0376" lon="7.01996">
        <ele>1312</ele>
        <time>2021-12-19T09:08:12Z</time>
      </trkpt>
      <trkpt lat="48.03758" lon="7.02031">
        <ele>1309</ele>
        <time>2021-12-19T09:08:18Z</time>
      </trkpt>
      <trkpt lat="48.0376" lon="7.02073">
        <ele>1307</ele>
        <time>2021-12-19T09:08:25Z</time>
      </trkpt>
      <trkpt lat="48.0376" lon="7.02088">
        <ele>1306</ele>
        <time>2021-12-19T09:08:28Z</time>
      </trkpt>
      <trkpt lat="48.03757" lon="7.02096">
        <ele>1306</ele>
        <time>2021-12-19T09:08:30Z</time>
      </trkpt>
      <trkpt lat="48.03753" lon="7.02121">
        <ele>1303</ele>
        <time>2021-12-19T09:08:34Z</time>
      </trkpt>
      <trkpt lat="48.03738" lon="7.02148">
        <ele>1299</ele>
        <time>2021-12-19T09:08:42Z</time>
      </trkpt>
      <trkpt lat="48.03736" lon="7.0215">
        <ele>1298</ele>
        <time>2021-12-19T09:08:47Z</time>
      </trkpt>
      <trkpt lat="48.03736" lon="7.02151">
        <ele>1298</ele>
        <time>2021-12-19T09:08:57Z</time>
      </trkpt>
      <trkpt lat="48.03723" lon="7.02176">
        <ele>1296</ele>
        <time>2021-12-19T09:09:05Z</time>
      </trkpt>
      <trkpt lat="48.03709" lon="7.02195">
        <ele>1293</ele>
        <time>2021-12-19T09:09:12Z</time>
      </trkpt>
      <trkpt lat="48.03704" lon="7.02215">
        <ele>1290</ele>
        <time>2021-12-19T09:09:19Z</time>
      </trkpt>
      <trkpt lat="48.03693" lon="7.02242">
        <ele>1288</ele>
        <time>2021-12-19T09:09:26Z</time>
      </trkpt>
      <trkpt lat="48.03686" lon="7.02261">
        <ele>1287</ele>
        <time>2021-12-19T09:09:30Z</time>
      </trkpt>
      <trkpt lat="48.03684" lon="7.02265">
        <ele>1286</ele>
        <time>2021-12-19T09:09:31Z</time>
      </trkpt>
      <trkpt lat="48.03681" lon="7.02266">
        <ele>1286</ele>
        <time>2021-12-19T09:09:34Z</time>
      </trkpt>
      <trkpt lat="48.03681" lon="7.02266">
        <ele>1286</ele>
        <time>2021-12-19T09:09:39Z</time>
      </trkpt>
      <trkpt lat="48.03681" lon="7.02266">
        <ele>1286</ele>
        <time>2021-12-19T09:09:42Z</time>
      </trkpt>
      <trkpt lat="48.03681" lon="7.02267">
        <ele>1286</ele>
        <time>2021-12-19T09:09:45Z</time>
      </trkpt>
      <trkpt lat="48.03681" lon="7.02285">
        <ele>1284</ele>
        <time>2021-12-19T09:09:51Z</time>
      </trkpt>
      <trkpt lat="48.03679" lon="7.02293">
        <ele>1283</ele>
        <time>2021-12-19T09:09:53Z</time>
      </trkpt>
      <trkpt lat="48.03668" lon="7.02319">
        <ele>1278</ele>
        <time>2021-12-19T09:10:02Z</time>
      </trkpt>
      <trkpt lat="48.0367" lon="7.02322">
        <ele>1278</ele>
        <time>2021-12-19T09:10:04Z</time>
      </trkpt>
      <trkpt lat="48.03682" lon="7.02329">
        <ele>1276</ele>
        <time>2021-12-19T09:10:09Z</time>
      </trkpt>
      <trkpt lat="48.03699" lon="7.02332">
        <ele>1275</ele>
        <time>2021-12-19T09:10:15Z</time>
      </trkpt>
      <trkpt lat="48.03702" lon="7.0235">
        <ele>1270</ele>
        <time>2021-12-19T09:10:21Z</time>
      </trkpt>
      <trkpt lat="48.03705" lon="7.02351">
        <ele>1269</ele>
        <time>2021-12-19T09:10:22Z</time>
      </trkpt>
      <trkpt lat="48.03711" lon="7.02352">
        <ele>1268</ele>
        <time>2021-12-19T09:10:24Z</time>
      </trkpt>
      <trkpt lat="48.03714" lon="7.0237">
        <ele>1264</ele>
        <time>2021-12-19T09:10:29Z</time>
      </trkpt>
      <trkpt lat="48.03711" lon="7.02383">
        <ele>1263</ele>
        <time>2021-12-19T09:10:35Z</time>
      </trkpt>
      <trkpt lat="48.03711" lon="7.02383">
        <ele>1263</ele>
        <time>2021-12-19T09:10:39Z</time>
      </trkpt>
      <trkpt lat="48.0371" lon="7.02384">
        <ele>1263</ele>
        <time>2021-12-19T09:10:43Z</time>
      </trkpt>
      <trkpt lat="48.03696" lon="7.02415">
        <ele>1261</ele>
        <time>2021-12-19T09:10:55Z</time>
      </trkpt>
      <trkpt lat="48.03685" lon="7.02451">
        <ele>1254</ele>
        <time>2021-12-19T09:11:03Z</time>
      </trkpt>
      <trkpt lat="48.03683" lon="7.02453">
        <ele>1253</ele>
        <time>2021-12-19T09:11:09Z</time>
      </trkpt>
      <trkpt lat="48.03683" lon="7.02454">
        <ele>1253</ele>
        <time>2021-12-19T09:11:16Z</time>
      </trkpt>
      <trkpt lat="48.03687" lon="7.02479">
        <ele>1246</ele>
        <time>2021-12-19T09:11:23Z</time>
      </trkpt>
      <trkpt lat="48.03681" lon="7.02512">
        <ele>1236</ele>
        <time>2021-12-19T09:11:28Z</time>
      </trkpt>
      <trkpt lat="48.03667" lon="7.02545">
        <ele>1228</ele>
        <time>2021-12-19T09:11:34Z</time>
      </trkpt>
      <trkpt lat="48.03663" lon="7.02562">
        <ele>1225</ele>
        <time>2021-12-19T09:11:36Z</time>
      </trkpt>
      <trkpt lat="48.03661" lon="7.02573">
        <ele>1224</ele>
        <time>2021-12-19T09:11:37Z</time>
      </trkpt>
      <trkpt lat="48.03655" lon="7.02607">
        <ele>1224</ele>
        <time>2021-12-19T09:11:40Z</time>
      </trkpt>
      <trkpt lat="48.03649" lon="7.02675">
        <ele>1224</ele>
        <time>2021-12-19T09:11:46Z</time>
      </trkpt>
      <trkpt lat="48.03652" lon="7.02699">
        <ele>1224</ele>
        <time>2021-12-19T09:11:51Z</time>
      </trkpt>
      <trkpt lat="48.03652" lon="7.02701">
        <ele>1225</ele>
        <time>2021-12-19T09:12:15Z</time>
      </trkpt>
      <trkpt lat="48.03648" lon="7.02708">
        <ele>1226</ele>
        <time>2021-12-19T09:12:45Z</time>
      </trkpt>
      <trkpt lat="48.03641" lon="7.02699">
        <ele>1227</ele>
        <time>2021-12-19T09:13:03Z</time>
      </trkpt>
      <trkpt lat="48.03635" lon="7.02711">
        <ele>1229</ele>
        <time>2021-12-19T09:13:26Z</time>
      </trkpt>
      <trkpt lat="48.03633" lon="7.02725">
        <ele>1231</ele>
        <time>2021-12-19T09:13:48Z</time>
      </trkpt>
      <trkpt lat="48.03632" lon="7.02741">
        <ele>1233</ele>
        <time>2021-12-19T09:14:07Z</time>
      </trkpt>
      <trkpt lat="48.03629" lon="7.02759">
        <ele>1234</ele>
        <time>2021-12-19T09:14:33Z</time>
      </trkpt>
      <trkpt lat="48.03618" lon="7.0276">
        <ele>1236</ele>
        <time>2021-12-19T09:14:58Z</time>
      </trkpt>
      <trkpt lat="48.03617" lon="7.02771">
        <ele>1237</ele>
        <time>2021-12-19T09:15:16Z</time>
      </trkpt>
      <trkpt lat="48.03613" lon="7.02778">
        <ele>1238</ele>
        <time>2021-12-19T09:15:34Z</time>
      </trkpt>
      <trkpt lat="48.0361" lon="7.02788">
        <ele>1239</ele>
        <time>2021-12-19T09:15:53Z</time>
      </trkpt>
      <trkpt lat="48.03606" lon="7.02795">
        <ele>1241</ele>
        <time>2021-12-19T09:16:09Z</time>
      </trkpt>
      <trkpt lat="48.03601" lon="7.02802">
        <ele>1242</ele>
        <time>2021-12-19T09:16:25Z</time>
      </trkpt>
      <trkpt lat="48.03595" lon="7.02808">
        <ele>1245</ele>
        <time>2021-12-19T09:16:42Z</time>
      </trkpt>
      <trkpt lat="48.03588" lon="7.02815">
        <ele>1248</ele>
        <time>2021-12-19T09:17:00Z</time>
      </trkpt>
      <trkpt lat="48.03579" lon="7.0282">
        <ele>1250</ele>
        <time>2021-12-19T09:17:18Z</time>
      </trkpt>
      <trkpt lat="48.0357" lon="7.02836">
        <ele>1253</ele>
        <time>2021-12-19T09:17:37Z</time>
      </trkpt>
      <trkpt lat="48.03568" lon="7.02852">
        <ele>1255</ele>
        <time>2021-12-19T09:17:56Z</time>
      </trkpt>
      <trkpt lat="48.03566" lon="7.02865">
        <ele>1258</ele>
        <time>2021-12-19T09:18:13Z</time>
      </trkpt>
      <trkpt lat="48.03559" lon="7.02874">
        <ele>1258</ele>
        <time>2021-12-19T09:18:30Z</time>
      </trkpt>
      <trkpt lat="48.03549" lon="7.02889">
        <ele>1260</ele>
        <time>2021-12-19T09:18:48Z</time>
      </trkpt>
      <trkpt lat="48.03548" lon="7.02906">
        <ele>1264</ele>
        <time>2021-12-19T09:19:04Z</time>
      </trkpt>
      <trkpt lat="48.0355" lon="7.02922">
        <ele>1268</ele>
        <time>2021-12-19T09:19:19Z</time>
      </trkpt>
      <trkpt lat="48.0355" lon="7.02932">
        <ele>1269</ele>
        <time>2021-12-19T09:19:27Z</time>
      </trkpt>
      <trkpt lat="48.03547" lon="7.02956">
        <ele>1272</ele>
        <time>2021-12-19T09:19:45Z</time>
      </trkpt>
      <trkpt lat="48.03545" lon="7.0298">
        <ele>1275</ele>
        <time>2021-12-19T09:20:04Z</time>
      </trkpt>
      <trkpt lat="48.03541" lon="7.03003">
        <ele>1277</ele>
        <time>2021-12-19T09:20:22Z</time>
      </trkpt>
      <trkpt lat="48.03541" lon="7.03026">
        <ele>1280</ele>
        <time>2021-12-19T09:20:40Z</time>
      </trkpt>
      <trkpt lat="48.0354" lon="7.03041">
        <ele>1281</ele>
        <time>2021-12-19T09:20:53Z</time>
      </trkpt>
      <trkpt lat="48.03538" lon="7.0307">
        <ele>1284</ele>
        <time>2021-12-19T09:21:14Z</time>
      </trkpt>
      <trkpt lat="48.03536" lon="7.031">
        <ele>1284</ele>
        <time>2021-12-19T09:21:35Z</time>
      </trkpt>
      <trkpt lat="48.0354" lon="7.03134">
        <ele>1282</ele>
        <time>2021-12-19T09:21:57Z</time>
      </trkpt>
      <trkpt lat="48.03544" lon="7.03168">
        <ele>1280</ele>
        <time>2021-12-19T09:22:19Z</time>
      </trkpt>
      <trkpt lat="48.03548" lon="7.032">
        <ele>1282</ele>
        <time>2021-12-19T09:22:40Z</time>
      </trkpt>
      <trkpt lat="48.0355" lon="7.03228">
        <ele>1285</ele>
        <time>2021-12-19T09:22:59Z</time>
      </trkpt>
      <trkpt lat="48.03553" lon="7.03258">
        <ele>1286</ele>
        <time>2021-12-19T09:23:19Z</time>
      </trkpt>
      <trkpt lat="48.03557" lon="7.03284">
        <ele>1287</ele>
        <time>2021-12-19T09:23:41Z</time>
      </trkpt>
      <trkpt lat="48.03557" lon="7.03287">
        <ele>1287</ele>
        <time>2021-12-19T09:23:53Z</time>
      </trkpt>
      <trkpt lat="48.03558" lon="7.03295">
        <ele>1287</ele>
        <time>2021-12-19T09:23:58Z</time>
      </trkpt>
      <trkpt lat="48.03562" lon="7.03337">
        <ele>1286</ele>
        <time>2021-12-19T09:24:18Z</time>
      </trkpt>
      <trkpt lat="48.03558" lon="7.03405">
        <ele>1282</ele>
        <time>2021-12-19T09:24:35Z</time>
      </trkpt>
      <trkpt lat="48.03555" lon="7.03433">
        <ele>1280</ele>
        <time>2021-12-19T09:24:40Z</time>
      </trkpt>
      <trkpt lat="48.03536" lon="7.03484">
        <ele>1275</ele>
        <time>2021-12-19T09:24:52Z</time>
      </trkpt>
      <trkpt lat="48.03534" lon="7.03488">
        <ele>1275</ele>
        <time>2021-12-19T09:24:53Z</time>
      </trkpt>
      <trkpt lat="48.0352" lon="7.03502">
        <ele>1273</ele>
        <time>2021-12-19T09:24:58Z</time>
      </trkpt>
      <trkpt lat="48.03501" lon="7.03517">
        <ele>1271</ele>
        <time>2021-12-19T09:25:05Z</time>
      </trkpt>
      <trkpt lat="48.03497" lon="7.03528">
        <ele>1268</ele>
        <time>2021-12-19T09:25:12Z</time>
      </trkpt>
      <trkpt lat="48.03498" lon="7.03529">
        <ele>1268</ele>
        <time>2021-12-19T09:25:15Z</time>
      </trkpt>
      <trkpt lat="48.035" lon="7.03545">
        <ele>1266</ele>
        <time>2021-12-19T09:25:21Z</time>
      </trkpt>
      <trkpt lat="48.03498" lon="7.03559">
        <ele>1264</ele>
        <time>2021-12-19T09:25:26Z</time>
      </trkpt>
      <trkpt lat="48.035" lon="7.03564">
        <ele>1263</ele>
        <time>2021-12-19T09:25:28Z</time>
      </trkpt>
      <trkpt lat="48.03488" lon="7.03579">
        <ele>1259</ele>
        <time>2021-12-19T09:25:34Z</time>
      </trkpt>
      <trkpt lat="48.03477" lon="7.03581">
        <ele>1257</ele>
        <time>2021-12-19T09:25:38Z</time>
      </trkpt>
      <trkpt lat="48.03477" lon="7.03602">
        <ele>1253</ele>
        <time>2021-12-19T09:25:43Z</time>
      </trkpt>
      <trkpt lat="48.03472" lon="7.03608">
        <ele>1251</ele>
        <time>2021-12-19T09:25:45Z</time>
      </trkpt>
      <trkpt lat="48.03468" lon="7.03627">
        <ele>1245</ele>
        <time>2021-12-19T09:25:50Z</time>
      </trkpt>
      <trkpt lat="48.03465" lon="7.03641">
        <ele>1240</ele>
        <time>2021-12-19T09:25:54Z</time>
      </trkpt>
      <trkpt lat="48.03464" lon="7.03659">
        <ele>1234</ele>
        <time>2021-12-19T09:25:58Z</time>
      </trkpt>
      <trkpt lat="48.03462" lon="7.03663">
        <ele>1233</ele>
        <time>2021-12-19T09:25:59Z</time>
      </trkpt>
      <trkpt lat="48.03457" lon="7.03684">
        <ele>1226</ele>
        <time>2021-12-19T09:26:04Z</time>
      </trkpt>
      <trkpt lat="48.03455" lon="7.03693">
        <ele>1222</ele>
        <time>2021-12-19T09:26:06Z</time>
      </trkpt>
      <trkpt lat="48.03453" lon="7.03714">
        <ele>1217</ele>
        <time>2021-12-19T09:26:11Z</time>
      </trkpt>
      <trkpt lat="48.03451" lon="7.03729">
        <ele>1213</ele>
        <time>2021-12-19T09:26:14Z</time>
      </trkpt>
      <trkpt lat="48.03448" lon="7.03756">
        <ele>1208</ele>
        <time>2021-12-19T09:26:20Z</time>
      </trkpt>
      <trkpt lat="48.03445" lon="7.03764">
        <ele>1206</ele>
        <time>2021-12-19T09:26:22Z</time>
      </trkpt>
      <trkpt lat="48.03446" lon="7.03779">
        <ele>1202</ele>
        <time>2021-12-19T09:26:25Z</time>
      </trkpt>
      <trkpt lat="48.03439" lon="7.03794">
        <ele>1197</ele>
        <time>2021-12-19T09:26:29Z</time>
      </trkpt>
      <trkpt lat="48.03441" lon="7.03805">
        <ele>1195</ele>
        <time>2021-12-19T09:26:31Z</time>
      </trkpt>
      <trkpt lat="48.03433" lon="7.03819">
        <ele>1189</ele>
        <time>2021-12-19T09:26:35Z</time>
      </trkpt>
      <trkpt lat="48.03436" lon="7.03837">
        <ele>1185</ele>
        <time>2021-12-19T09:26:38Z</time>
      </trkpt>
      <trkpt lat="48.03428" lon="7.0385">
        <ele>1181</ele>
        <time>2021-12-19T09:26:41Z</time>
      </trkpt>
      <trkpt lat="48.03428" lon="7.0386">
        <ele>1179</ele>
        <time>2021-12-19T09:26:43Z</time>
      </trkpt>
      <trkpt lat="48.03421" lon="7.03878">
        <ele>1174</ele>
        <time>2021-12-19T09:26:47Z</time>
      </trkpt>
      <trkpt lat="48.03421" lon="7.03889">
        <ele>1172</ele>
        <time>2021-12-19T09:26:49Z</time>
      </trkpt>
      <trkpt lat="48.03417" lon="7.0391">
        <ele>1166</ele>
        <time>2021-12-19T09:26:54Z</time>
      </trkpt>
      <trkpt lat="48.03415" lon="7.0392">
        <ele>1163</ele>
        <time>2021-12-19T09:26:56Z</time>
      </trkpt>
      <trkpt lat="48.03415" lon="7.03936">
        <ele>1160</ele>
        <time>2021-12-19T09:26:59Z</time>
      </trkpt>
      <trkpt lat="48.03414" lon="7.03954">
        <ele>1155</ele>
        <time>2021-12-19T09:27:03Z</time>
      </trkpt>
      <trkpt lat="48.03413" lon="7.03964">
        <ele>1152</ele>
        <time>2021-12-19T09:27:07Z</time>
      </trkpt>
      <trkpt lat="48.03412" lon="7.03963">
        <ele>1152</ele>
        <time>2021-12-19T09:27:10Z</time>
      </trkpt>
      <trkpt lat="48.03412" lon="7.03964">
        <ele>1152</ele>
        <time>2021-12-19T09:27:13Z</time>
      </trkpt>
      <trkpt lat="48.03412" lon="7.03964">
        <ele>1152</ele>
        <time>2021-12-19T09:27:17Z</time>
      </trkpt>
      <trkpt lat="48.03412" lon="7.03965">
        <ele>1152</ele>
        <time>2021-12-19T09:27:27Z</time>
      </trkpt>
      <trkpt lat="48.0341" lon="7.03977">
        <ele>1148</ele>
        <time>2021-12-19T09:27:34Z</time>
      </trkpt>
      <trkpt lat="48.03409" lon="7.03976">
        <ele>1148</ele>
        <time>2021-12-19T09:27:41Z</time>
      </trkpt>
      <trkpt lat="48.03409" lon="7.03976">
        <ele>1148</ele>
        <time>2021-12-19T09:27:44Z</time>
      </trkpt>
      <trkpt lat="48.03409" lon="7.0398">
        <ele>1147</ele>
        <time>2021-12-19T09:27:46Z</time>
      </trkpt>
      <trkpt lat="48.03406" lon="7.03983">
        <ele>1145</ele>
        <time>2021-12-19T09:27:54Z</time>
      </trkpt>
      <trkpt lat="48.03406" lon="7.04">
        <ele>1139</ele>
        <time>2021-12-19T09:27:59Z</time>
      </trkpt>
      <trkpt lat="48.03399" lon="7.04034">
        <ele>1126</ele>
        <time>2021-12-19T09:28:07Z</time>
      </trkpt>
      <trkpt lat="48.03394" lon="7.04047">
        <ele>1122</ele>
        <time>2021-12-19T09:28:10Z</time>
      </trkpt>
      <trkpt lat="48.03394" lon="7.04066">
        <ele>1117</ele>
        <time>2021-12-19T09:28:13Z</time>
      </trkpt>
      <trkpt lat="48.03389" lon="7.04074">
        <ele>1114</ele>
        <time>2021-12-19T09:28:15Z</time>
      </trkpt>
      <trkpt lat="48.03387" lon="7.04083">
        <ele>1111</ele>
        <time>2021-12-19T09:28:17Z</time>
      </trkpt>
      <trkpt lat="48.03383" lon="7.0411">
        <ele>1106</ele>
        <time>2021-12-19T09:28:22Z</time>
      </trkpt>
      <trkpt lat="48.03386" lon="7.0412">
        <ele>1105</ele>
        <time>2021-12-19T09:28:24Z</time>
      </trkpt>
      <trkpt lat="48.03384" lon="7.04136">
        <ele>1102</ele>
        <time>2021-12-19T09:28:27Z</time>
      </trkpt>
      <trkpt lat="48.03383" lon="7.04149">
        <ele>1099</ele>
        <time>2021-12-19T09:28:30Z</time>
      </trkpt>
      <trkpt lat="48.03381" lon="7.04162">
        <ele>1095</ele>
        <time>2021-12-19T09:28:33Z</time>
      </trkpt>
      <trkpt lat="48.03379" lon="7.04176">
        <ele>1091</ele>
        <time>2021-12-19T09:28:36Z</time>
      </trkpt>
      <trkpt lat="48.03384" lon="7.04183">
        <ele>1090</ele>
        <time>2021-12-19T09:28:38Z</time>
      </trkpt>
      <trkpt lat="48.03383" lon="7.04192">
        <ele>1087</ele>
        <time>2021-12-19T09:28:40Z</time>
      </trkpt>
      <trkpt lat="48.03382" lon="7.04197">
        <ele>1085</ele>
        <time>2021-12-19T09:28:41Z</time>
      </trkpt>
      <trkpt lat="48.03384" lon="7.04214">
        <ele>1079</ele>
        <time>2021-12-19T09:28:44Z</time>
      </trkpt>
      <trkpt lat="48.03382" lon="7.04218">
        <ele>1077</ele>
        <time>2021-12-19T09:28:45Z</time>
      </trkpt>
      <trkpt lat="48.0338" lon="7.04243">
        <ele>1068</ele>
        <time>2021-12-19T09:28:50Z</time>
      </trkpt>
      <trkpt lat="48.03377" lon="7.04257">
        <ele>1063</ele>
        <time>2021-12-19T09:28:53Z</time>
      </trkpt>
      <trkpt lat="48.0338" lon="7.04272">
        <ele>1059</ele>
        <time>2021-12-19T09:28:56Z</time>
      </trkpt>
      <trkpt lat="48.03378" lon="7.04285">
        <ele>1054</ele>
        <time>2021-12-19T09:28:59Z</time>
      </trkpt>
      <trkpt lat="48.0338" lon="7.04296">
        <ele>1049</ele>
        <time>2021-12-19T09:29:01Z</time>
      </trkpt>
      <trkpt lat="48.03385" lon="7.04305">
        <ele>1046</ele>
        <time>2021-12-19T09:29:03Z</time>
      </trkpt>
      <trkpt lat="48.03386" lon="7.04311">
        <ele>1044</ele>
        <time>2021-12-19T09:29:04Z</time>
      </trkpt>
      <trkpt lat="48.03382" lon="7.04319">
        <ele>1041</ele>
        <time>2021-12-19T09:29:06Z</time>
      </trkpt>
      <trkpt lat="48.03384" lon="7.04333">
        <ele>1036</ele>
        <time>2021-12-19T09:29:09Z</time>
      </trkpt>
      <trkpt lat="48.03392" lon="7.04344">
        <ele>1034</ele>
        <time>2021-12-19T09:29:12Z</time>
      </trkpt>
      <trkpt lat="48.03393" lon="7.04357">
        <ele>1030</ele>
        <time>2021-12-19T09:29:15Z</time>
      </trkpt>
      <trkpt lat="48.03399" lon="7.04377">
        <ele>1026</ele>
        <time>2021-12-19T09:29:19Z</time>
      </trkpt>
      <trkpt lat="48.034" lon="7.044">
        <ele>1020</ele>
        <time>2021-12-19T09:29:23Z</time>
      </trkpt>
      <trkpt lat="48.03407" lon="7.04416">
        <ele>1016</ele>
        <time>2021-12-19T09:29:26Z</time>
      </trkpt>
      <trkpt lat="48.03407" lon="7.04423">
        <ele>1015</ele>
        <time>2021-12-19T09:29:27Z</time>
      </trkpt>
      <trkpt lat="48.03409" lon="7.04453">
        <ele>1009</ele>
        <time>2021-12-19T09:29:32Z</time>
      </trkpt>
      <trkpt lat="48.03408" lon="7.04459">
        <ele>1008</ele>
        <time>2021-12-19T09:29:33Z</time>
      </trkpt>
      <trkpt lat="48.03406" lon="7.04464">
        <ele>1007</ele>
        <time>2021-12-19T09:29:34Z</time>
      </trkpt>
      <trkpt lat="48.03402" lon="7.04484">
        <ele>1004</ele>
        <time>2021-12-19T09:29:38Z</time>
      </trkpt>
      <trkpt lat="48.03399" lon="7.04488">
        <ele>1004</ele>
        <time>2021-12-19T09:29:39Z</time>
      </trkpt>
      <trkpt lat="48.03395" lon="7.04499">
        <ele>1002</ele>
        <time>2021-12-19T09:29:41Z</time>
      </trkpt>
      <trkpt lat="48.03395" lon="7.04505">
        <ele>1002</ele>
        <time>2021-12-19T09:29:42Z</time>
      </trkpt>
      <trkpt lat="48.03394" lon="7.04511">
        <ele>1001</ele>
        <time>2021-12-19T09:29:43Z</time>
      </trkpt>
      <trkpt lat="48.03391" lon="7.04514">
        <ele>1000</ele>
        <time>2021-12-19T09:29:44Z</time>
      </trkpt>
      <trkpt lat="48.03387" lon="7.04523">
        <ele>999</ele>
        <time>2021-12-19T09:29:46Z</time>
      </trkpt>
      <trkpt lat="48.03387" lon="7.04528">
        <ele>998</ele>
        <time>2021-12-19T09:29:47Z</time>
      </trkpt>
      <trkpt lat="48.03387" lon="7.04534">
        <ele>998</ele>
        <time>2021-12-19T09:29:48Z</time>
      </trkpt>
      <trkpt lat="48.03387" lon="7.0454">
        <ele>997</ele>
        <time>2021-12-19T09:29:49Z</time>
      </trkpt>
      <trkpt lat="48.03385" lon="7.04543">
        <ele>997</ele>
        <time>2021-12-19T09:29:50Z</time>
      </trkpt>
      <trkpt lat="48.03379" lon="7.04549">
        <ele>996</ele>
        <time>2021-12-19T09:29:52Z</time>
      </trkpt>
      <trkpt lat="48.03376" lon="7.04565">
        <ele>994</ele>
        <time>2021-12-19T09:29:55Z</time>
      </trkpt>
      <trkpt lat="48.03364" lon="7.04586">
        <ele>990</ele>
        <time>2021-12-19T09:30:00Z</time>
      </trkpt>
      <trkpt lat="48.03351" lon="7.04609">
        <ele>988</ele>
        <time>2021-12-19T09:30:05Z</time>
      </trkpt>
      <trkpt lat="48.03339" lon="7.04627">
        <ele>987</ele>
        <time>2021-12-19T09:30:10Z</time>
      </trkpt>
      <trkpt lat="48.0333" lon="7.04624">
        <ele>985</ele>
        <time>2021-12-19T09:30:16Z</time>
      </trkpt>
      <trkpt lat="48.0333" lon="7.04623">
        <ele>985</ele>
        <time>2021-12-19T09:30:18Z</time>
      </trkpt>
      <trkpt lat="48.03329" lon="7.04623">
        <ele>985</ele>
        <time>2021-12-19T09:30:24Z</time>
      </trkpt>
      <trkpt lat="48.03327" lon="7.04625">
        <ele>984</ele>
        <time>2021-12-19T09:30:47Z</time>
      </trkpt>
      <trkpt lat="48.03331" lon="7.0463">
        <ele>986</ele>
        <time>2021-12-19T09:31:15Z</time>
      </trkpt>
      <trkpt lat="48.03326" lon="7.0463">
        <ele>985</ele>
        <time>2021-12-19T09:32:25Z</time>
      </trkpt>
      <trkpt lat="48.03329" lon="7.04626">
        <ele>985</ele>
        <time>2021-12-19T09:33:15Z</time>
      </trkpt>
      <trkpt lat="48.03331" lon="7.04628">
        <ele>986</ele>
        <time>2021-12-19T09:33:31Z</time>
      </trkpt>
      <trkpt lat="48.03327" lon="7.04629">
        <ele>985</ele>
        <time>2021-12-19T09:34:19Z</time>
      </trkpt>
      <trkpt lat="48.03327" lon="7.0463">
        <ele>985</ele>
        <time>2021-12-19T09:34:20Z</time>
      </trkpt>
      <trkpt lat="48.03327" lon="7.04621">
        <ele>984</ele>
        <time>2021-12-19T09:34:55Z</time>
      </trkpt>
      <trkpt lat="48.03329" lon="7.04632">
        <ele>986</ele>
        <time>2021-12-19T09:35:10Z</time>
      </trkpt>
      <trkpt lat="48.03337" lon="7.04634">
        <ele>988</ele>
        <time>2021-12-19T09:35:37Z</time>
      </trkpt>
      <trkpt lat="48.03353" lon="7.04619">
        <ele>989</ele>
        <time>2021-12-19T09:36:01Z</time>
      </trkpt>
      <trkpt lat="48.03368" lon="7.04596">
        <ele>991</ele>
        <time>2021-12-19T09:36:24Z</time>
      </trkpt>
      <trkpt lat="48.03379" lon="7.04574">
        <ele>994</ele>
        <time>2021-12-19T09:36:44Z</time>
      </trkpt>
      <trkpt lat="48.03389" lon="7.04545">
        <ele>997</ele>
        <time>2021-12-19T09:37:05Z</time>
      </trkpt>
      <trkpt lat="48.03391" lon="7.04522">
        <ele>999</ele>
        <time>2021-12-19T09:37:28Z</time>
      </trkpt>
      <trkpt lat="48.03393" lon="7.04497">
        <ele>1003</ele>
        <time>2021-12-19T09:37:50Z</time>
      </trkpt>
      <trkpt lat="48.03398" lon="7.04472">
        <ele>1006</ele>
        <time>2021-12-19T09:38:13Z</time>
      </trkpt>
      <trkpt lat="48.03392" lon="7.04449">
        <ele>1008</ele>
        <time>2021-12-19T09:38:36Z</time>
      </trkpt>
      <trkpt lat="48.03379" lon="7.04427">
        <ele>1010</ele>
        <time>2021-12-19T09:39:03Z</time>
      </trkpt>
      <trkpt lat="48.03368" lon="7.04419">
        <ele>1011</ele>
        <time>2021-12-19T09:39:26Z</time>
      </trkpt>
      <trkpt lat="48.03356" lon="7.04405">
        <ele>1013</ele>
        <time>2021-12-19T09:39:51Z</time>
      </trkpt>
      <trkpt lat="48.03351" lon="7.04403">
        <ele>1013</ele>
        <time>2021-12-19T09:39:55Z</time>
      </trkpt>
      <trkpt lat="48.03342" lon="7.04388">
        <ele>1017</ele>
        <time>2021-12-19T09:40:15Z</time>
      </trkpt>
      <trkpt lat="48.03337" lon="7.04374">
        <ele>1021</ele>
        <time>2021-12-19T09:40:34Z</time>
      </trkpt>
      <trkpt lat="48.0332" lon="7.04364">
        <ele>1022</ele>
        <time>2021-12-19T09:40:59Z</time>
      </trkpt>
      <trkpt lat="48.03313" lon="7.04354">
        <ele>1024</ele>
        <time>2021-12-19T09:41:12Z</time>
      </trkpt>
      <trkpt lat="48.03309" lon="7.04344">
        <ele>1026</ele>
        <time>2021-12-19T09:41:25Z</time>
      </trkpt>
      <trkpt lat="48.03307" lon="7.04328">
        <ele>1029</ele>
        <time>2021-12-19T09:41:37Z</time>
      </trkpt>
      <trkpt lat="48.03305" lon="7.04312">
        <ele>1032</ele>
        <time>2021-12-19T09:41:50Z</time>
      </trkpt>
      <trkpt lat="48.03304" lon="7.04298">
        <ele>1035</ele>
        <time>2021-12-19T09:42:05Z</time>
      </trkpt>
      <trkpt lat="48.033" lon="7.04282">
        <ele>1039</ele>
        <time>2021-12-19T09:42:20Z</time>
      </trkpt>
      <trkpt lat="48.03296" lon="7.04273">
        <ele>1041</ele>
        <time>2021-12-19T09:42:31Z</time>
      </trkpt>
      <trkpt lat="48.0329" lon="7.04248">
        <ele>1049</ele>
        <time>2021-12-19T09:42:50Z</time>
      </trkpt>
      <trkpt lat="48.03282" lon="7.04231">
        <ele>1053</ele>
        <time>2021-12-19T09:43:08Z</time>
      </trkpt>
      <trkpt lat="48.03279" lon="7.04224">
        <ele>1055</ele>
        <time>2021-12-19T09:43:17Z</time>
      </trkpt>
      <trkpt lat="48.03276" lon="7.04214">
        <ele>1057</ele>
        <time>2021-12-19T09:43:31Z</time>
      </trkpt>
      <trkpt lat="48.03266" lon="7.04204">
        <ele>1055</ele>
        <time>2021-12-19T09:43:44Z</time>
      </trkpt>
      <trkpt lat="48.03264" lon="7.04193">
        <ele>1058</ele>
        <time>2021-12-19T09:43:57Z</time>
      </trkpt>
      <trkpt lat="48.03261" lon="7.04182">
        <ele>1060</ele>
        <time>2021-12-19T09:44:09Z</time>
      </trkpt>
      <trkpt lat="48.03254" lon="7.04174">
        <ele>1060</ele>
        <time>2021-12-19T09:44:19Z</time>
      </trkpt>
      <trkpt lat="48.03242" lon="7.04156">
        <ele>1062</ele>
        <time>2021-12-19T09:44:37Z</time>
      </trkpt>
      <trkpt lat="48.03236" lon="7.04144">
        <ele>1064</ele>
        <time>2021-12-19T09:44:51Z</time>
      </trkpt>
      <trkpt lat="48.0323" lon="7.04134">
        <ele>1065</ele>
        <time>2021-12-19T09:45:06Z</time>
      </trkpt>
      <trkpt lat="48.03224" lon="7.04118">
        <ele>1068</ele>
        <time>2021-12-19T09:45:24Z</time>
      </trkpt>
      <trkpt lat="48.03221" lon="7.04107">
        <ele>1070</ele>
        <time>2021-12-19T09:45:34Z</time>
      </trkpt>
      <trkpt lat="48.03218" lon="7.04102">
        <ele>1070</ele>
        <time>2021-12-19T09:45:42Z</time>
      </trkpt>
      <trkpt lat="48.03214" lon="7.04095">
        <ele>1071</ele>
        <time>2021-12-19T09:45:50Z</time>
      </trkpt>
      <trkpt lat="48.03211" lon="7.04093">
        <ele>1070</ele>
        <time>2021-12-19T09:45:54Z</time>
      </trkpt>
      <trkpt lat="48.03208" lon="7.04082">
        <ele>1072</ele>
        <time>2021-12-19T09:46:03Z</time>
      </trkpt>
      <trkpt lat="48.03206" lon="7.0408">
        <ele>1072</ele>
        <time>2021-12-19T09:46:06Z</time>
      </trkpt>
      <trkpt lat="48.032" lon="7.04078">
        <ele>1071</ele>
        <time>2021-12-19T09:46:12Z</time>
      </trkpt>
      <trkpt lat="48.03196" lon="7.04071">
        <ele>1071</ele>
        <time>2021-12-19T09:46:19Z</time>
      </trkpt>
      <trkpt lat="48.0319" lon="7.04041">
        <ele>1078</ele>
        <time>2021-12-19T09:46:39Z</time>
      </trkpt>
      <trkpt lat="48.03183" lon="7.04034">
        <ele>1078</ele>
        <time>2021-12-19T09:46:48Z</time>
      </trkpt>
      <trkpt lat="48.03169" lon="7.04">
        <ele>1084</ele>
        <time>2021-12-19T09:47:16Z</time>
      </trkpt>
      <trkpt lat="48.03163" lon="7.03978">
        <ele>1088</ele>
        <time>2021-12-19T09:47:37Z</time>
      </trkpt>
      <trkpt lat="48.03156" lon="7.03955">
        <ele>1089</ele>
        <time>2021-12-19T09:47:59Z</time>
      </trkpt>
      <trkpt lat="48.03142" lon="7.03926">
        <ele>1088</ele>
        <time>2021-12-19T09:48:25Z</time>
      </trkpt>
      <trkpt lat="48.03143" lon="7.03903">
        <ele>1092</ele>
        <time>2021-12-19T09:48:48Z</time>
      </trkpt>
      <trkpt lat="48.03144" lon="7.03892">
        <ele>1094</ele>
        <time>2021-12-19T09:48:57Z</time>
      </trkpt>
      <trkpt lat="48.03144" lon="7.03879">
        <ele>1096</ele>
        <time>2021-12-19T09:49:08Z</time>
      </trkpt>
      <trkpt lat="48.03137" lon="7.03878">
        <ele>1094</ele>
        <time>2021-12-19T09:49:14Z</time>
      </trkpt>
      <trkpt lat="48.03129" lon="7.03849">
        <ele>1096</ele>
        <time>2021-12-19T09:49:38Z</time>
      </trkpt>
      <trkpt lat="48.03128" lon="7.03838">
        <ele>1098</ele>
        <time>2021-12-19T09:49:49Z</time>
      </trkpt>
      <trkpt lat="48.03129" lon="7.03837">
        <ele>1098</ele>
        <time>2021-12-19T09:49:50Z</time>
      </trkpt>
      <trkpt lat="48.03129" lon="7.03822">
        <ele>1101</ele>
        <time>2021-12-19T09:50:01Z</time>
      </trkpt>
      <trkpt lat="48.03125" lon="7.03813">
        <ele>1101</ele>
        <time>2021-12-19T09:50:15Z</time>
      </trkpt>
      <trkpt lat="48.03124" lon="7.03809">
        <ele>1101</ele>
        <time>2021-12-19T09:50:18Z</time>
      </trkpt>
      <trkpt lat="48.03121" lon="7.03796">
        <ele>1103</ele>
        <time>2021-12-19T09:50:32Z</time>
      </trkpt>
      <trkpt lat="48.03105" lon="7.03783">
        <ele>1100</ele>
        <time>2021-12-19T09:50:50Z</time>
      </trkpt>
      <trkpt lat="48.03103" lon="7.03778">
        <ele>1100</ele>
        <time>2021-12-19T09:50:55Z</time>
      </trkpt>
      <trkpt lat="48.03098" lon="7.03775">
        <ele>1099</ele>
        <time>2021-12-19T09:51:01Z</time>
      </trkpt>
      <trkpt lat="48.03094" lon="7.03773">
        <ele>1098</ele>
        <time>2021-12-19T09:51:05Z</time>
      </trkpt>
      <trkpt lat="48.03088" lon="7.03766">
        <ele>1097</ele>
        <time>2021-12-19T09:51:15Z</time>
      </trkpt>
      <trkpt lat="48.03083" lon="7.03765">
        <ele>1096</ele>
        <time>2021-12-19T09:51:20Z</time>
      </trkpt>
      <trkpt lat="48.03069" lon="7.03753">
        <ele>1095</ele>
        <time>2021-12-19T09:51:34Z</time>
      </trkpt>
      <trkpt lat="48.03055" lon="7.03733">
        <ele>1095</ele>
        <time>2021-12-19T09:51:54Z</time>
      </trkpt>
      <trkpt lat="48.03047" lon="7.03724">
        <ele>1095</ele>
        <time>2021-12-19T09:52:07Z</time>
      </trkpt>
      <trkpt lat="48.03041" lon="7.03711">
        <ele>1097</ele>
        <time>2021-12-19T09:52:22Z</time>
      </trkpt>
      <trkpt lat="48.03026" lon="7.03682">
        <ele>1101</ele>
        <time>2021-12-19T09:52:48Z</time>
      </trkpt>
      <trkpt lat="48.03017" lon="7.0365">
        <ele>1105</ele>
        <time>2021-12-19T09:53:15Z</time>
      </trkpt>
      <trkpt lat="48.03005" lon="7.03622">
        <ele>1104</ele>
        <time>2021-12-19T09:53:42Z</time>
      </trkpt>
      <trkpt lat="48.02989" lon="7.036">
        <ele>1103</ele>
        <time>2021-12-19T09:54:09Z</time>
      </trkpt>
      <trkpt lat="48.02982" lon="7.03583">
        <ele>1105</ele>
        <time>2021-12-19T09:54:29Z</time>
      </trkpt>
      <trkpt lat="48.02977" lon="7.03563">
        <ele>1109</ele>
        <time>2021-12-19T09:54:52Z</time>
      </trkpt>
      <trkpt lat="48.02972" lon="7.03547">
        <ele>1114</ele>
        <time>2021-12-19T09:55:10Z</time>
      </trkpt>
      <trkpt lat="48.02968" lon="7.03528">
        <ele>1121</ele>
        <time>2021-12-19T09:55:30Z</time>
      </trkpt>
      <trkpt lat="48.02962" lon="7.03502">
        <ele>1127</ele>
        <time>2021-12-19T09:55:56Z</time>
      </trkpt>
      <trkpt lat="48.02956" lon="7.0348">
        <ele>1130</ele>
        <time>2021-12-19T09:56:19Z</time>
      </trkpt>
      <trkpt lat="48.02959" lon="7.03463">
        <ele>1134</ele>
        <time>2021-12-19T09:56:43Z</time>
      </trkpt>
      <trkpt lat="48.02974" lon="7.03469">
        <ele>1135</ele>
        <time>2021-12-19T09:57:07Z</time>
      </trkpt>
      <trkpt lat="48.02988" lon="7.03477">
        <ele>1138</ele>
        <time>2021-12-19T09:57:31Z</time>
      </trkpt>
      <trkpt lat="48.03001" lon="7.03486">
        <ele>1140</ele>
        <time>2021-12-19T09:57:53Z</time>
      </trkpt>
      <trkpt lat="48.03013" lon="7.03497">
        <ele>1141</ele>
        <time>2021-12-19T09:58:18Z</time>
      </trkpt>
      <trkpt lat="48.03023" lon="7.035">
        <ele>1144</ele>
        <time>2021-12-19T09:58:39Z</time>
      </trkpt>
      <trkpt lat="48.03035" lon="7.03504">
        <ele>1147</ele>
        <time>2021-12-19T09:58:58Z</time>
      </trkpt>
      <trkpt lat="48.03044" lon="7.03508">
        <ele>1150</ele>
        <time>2021-12-19T09:59:15Z</time>
      </trkpt>
      <trkpt lat="48.03055" lon="7.03509">
        <ele>1154</ele>
        <time>2021-12-19T09:59:33Z</time>
      </trkpt>
      <trkpt lat="48.03065" lon="7.03511">
        <ele>1158</ele>
        <time>2021-12-19T09:59:56Z</time>
      </trkpt>
      <trkpt lat="48.03076" lon="7.03521">
        <ele>1160</ele>
        <time>2021-12-19T10:00:16Z</time>
      </trkpt>
      <trkpt lat="48.03084" lon="7.03527">
        <ele>1161</ele>
        <time>2021-12-19T10:00:35Z</time>
      </trkpt>
      <trkpt lat="48.03095" lon="7.03532">
        <ele>1163</ele>
        <time>2021-12-19T10:00:54Z</time>
      </trkpt>
      <trkpt lat="48.03106" lon="7.03533">
        <ele>1165</ele>
        <time>2021-12-19T10:01:14Z</time>
      </trkpt>
      <trkpt lat="48.03117" lon="7.03535">
        <ele>1168</ele>
        <time>2021-12-19T10:01:35Z</time>
      </trkpt>
      <trkpt lat="48.03129" lon="7.03537">
        <ele>1169</ele>
        <time>2021-12-19T10:01:58Z</time>
      </trkpt>
      <trkpt lat="48.03144" lon="7.03538">
        <ele>1172</ele>
        <time>2021-12-19T10:02:18Z</time>
      </trkpt>
      <trkpt lat="48.03154" lon="7.03542">
        <ele>1175</ele>
        <time>2021-12-19T10:02:38Z</time>
      </trkpt>
      <trkpt lat="48.03154" lon="7.03529">
        <ele>1178</ele>
        <time>2021-12-19T10:02:54Z</time>
      </trkpt>
      <trkpt lat="48.0315" lon="7.03513">
        <ele>1181</ele>
        <time>2021-12-19T10:03:14Z</time>
      </trkpt>
      <trkpt lat="48.03144" lon="7.03496">
        <ele>1183</ele>
        <time>2021-12-19T10:03:39Z</time>
      </trkpt>
      <trkpt lat="48.03142" lon="7.03481">
        <ele>1186</ele>
        <time>2021-12-19T10:03:59Z</time>
      </trkpt>
      <trkpt lat="48.03152" lon="7.03479">
        <ele>1189</ele>
        <time>2021-12-19T10:04:19Z</time>
      </trkpt>
      <trkpt lat="48.03165" lon="7.03484">
        <ele>1192</ele>
        <time>2021-12-19T10:04:43Z</time>
      </trkpt>
      <trkpt lat="48.03173" lon="7.03485">
        <ele>1195</ele>
        <time>2021-12-19T10:05:05Z</time>
      </trkpt>
      <trkpt lat="48.03189" lon="7.03487">
        <ele>1201</ele>
        <time>2021-12-19T10:05:33Z</time>
      </trkpt>
      <trkpt lat="48.032" lon="7.03491">
        <ele>1204</ele>
        <time>2021-12-19T10:05:54Z</time>
      </trkpt>
      <trkpt lat="48.03213" lon="7.03494">
        <ele>1208</ele>
        <time>2021-12-19T10:06:16Z</time>
      </trkpt>
      <trkpt lat="48.03221" lon="7.03494">
        <ele>1211</ele>
        <time>2021-12-19T10:06:37Z</time>
      </trkpt>
      <trkpt lat="48.03216" lon="7.03478">
        <ele>1213</ele>
        <time>2021-12-19T10:06:59Z</time>
      </trkpt>
      <trkpt lat="48.03209" lon="7.0346">
        <ele>1213</ele>
        <time>2021-12-19T10:07:22Z</time>
      </trkpt>
      <trkpt lat="48.03209" lon="7.03448">
        <ele>1214</ele>
        <time>2021-12-19T10:07:41Z</time>
      </trkpt>
      <trkpt lat="48.03214" lon="7.03439">
        <ele>1217</ele>
        <time>2021-12-19T10:07:55Z</time>
      </trkpt>
      <trkpt lat="48.03223" lon="7.03443">
        <ele>1219</ele>
        <time>2021-12-19T10:08:20Z</time>
      </trkpt>
      <trkpt lat="48.03237" lon="7.03447">
        <ele>1223</ele>
        <time>2021-12-19T10:08:47Z</time>
      </trkpt>
      <trkpt lat="48.03246" lon="7.03448">
        <ele>1226</ele>
        <time>2021-12-19T10:09:04Z</time>
      </trkpt>
      <trkpt lat="48.03256" lon="7.03452">
        <ele>1230</ele>
        <time>2021-12-19T10:09:26Z</time>
      </trkpt>
      <trkpt lat="48.03269" lon="7.03456">
        <ele>1233</ele>
        <time>2021-12-19T10:09:51Z</time>
      </trkpt>
      <trkpt lat="48.03279" lon="7.0346">
        <ele>1236</ele>
        <time>2021-12-19T10:10:08Z</time>
      </trkpt>
      <trkpt lat="48.03293" lon="7.03468">
        <ele>1239</ele>
        <time>2021-12-19T10:10:32Z</time>
      </trkpt>
      <trkpt lat="48.033" lon="7.0347">
        <ele>1241</ele>
        <time>2021-12-19T10:10:42Z</time>
      </trkpt>
      <trkpt lat="48.0331" lon="7.03471">
        <ele>1244</ele>
        <time>2021-12-19T10:11:01Z</time>
      </trkpt>
      <trkpt lat="48.03323" lon="7.03476">
        <ele>1245</ele>
        <time>2021-12-19T10:11:26Z</time>
      </trkpt>
      <trkpt lat="48.03336" lon="7.03484">
        <ele>1247</ele>
        <time>2021-12-19T10:11:49Z</time>
      </trkpt>
      <trkpt lat="48.03349" lon="7.03489">
        <ele>1249</ele>
        <time>2021-12-19T10:12:13Z</time>
      </trkpt>
      <trkpt lat="48.03358" lon="7.03492">
        <ele>1250</ele>
        <time>2021-12-19T10:12:37Z</time>
      </trkpt>
      <trkpt lat="48.03374" lon="7.03496">
        <ele>1253</ele>
        <time>2021-12-19T10:13:01Z</time>
      </trkpt>
      <trkpt lat="48.03386" lon="7.03493">
        <ele>1256</ele>
        <time>2021-12-19T10:13:22Z</time>
      </trkpt>
      <trkpt lat="48.03388" lon="7.03476">
        <ele>1260</ele>
        <time>2021-12-19T10:13:44Z</time>
      </trkpt>
      <trkpt lat="48.03398" lon="7.03484">
        <ele>1260</ele>
        <time>2021-12-19T10:14:04Z</time>
      </trkpt>
      <trkpt lat="48.03415" lon="7.03488">
        <ele>1262</ele>
        <time>2021-12-19T10:14:30Z</time>
      </trkpt>
      <trkpt lat="48.03426" lon="7.03488">
        <ele>1265</ele>
        <time>2021-12-19T10:14:52Z</time>
      </trkpt>
      <trkpt lat="48.03437" lon="7.03483">
        <ele>1269</ele>
        <time>2021-12-19T10:15:11Z</time>
      </trkpt>
      <trkpt lat="48.03451" lon="7.03474">
        <ele>1273</ele>
        <time>2021-12-19T10:15:37Z</time>
      </trkpt>
      <trkpt lat="48.03463" lon="7.03465">
        <ele>1276</ele>
        <time>2021-12-19T10:15:59Z</time>
      </trkpt>
      <trkpt lat="48.03466" lon="7.03446">
        <ele>1277</ele>
        <time>2021-12-19T10:16:20Z</time>
      </trkpt>
      <trkpt lat="48.03472" lon="7.03431">
        <ele>1279</ele>
        <time>2021-12-19T10:16:44Z</time>
      </trkpt>
      <trkpt lat="48.03483" lon="7.03418">
        <ele>1280</ele>
        <time>2021-12-19T10:17:06Z</time>
      </trkpt>
      <trkpt lat="48.03501" lon="7.03403">
        <ele>1281</ele>
        <time>2021-12-19T10:17:32Z</time>
      </trkpt>
      <trkpt lat="48.03515" lon="7.03387">
        <ele>1281</ele>
        <time>2021-12-19T10:17:55Z</time>
      </trkpt>
      <trkpt lat="48.03532" lon="7.03372">
        <ele>1281</ele>
        <time>2021-12-19T10:18:18Z</time>
      </trkpt>
      <trkpt lat="48.03544" lon="7.03342">
        <ele>1284</ele>
        <time>2021-12-19T10:18:47Z</time>
      </trkpt>
      <trkpt lat="48.03544" lon="7.0334">
        <ele>1284</ele>
        <time>2021-12-19T10:19:13Z</time>
      </trkpt>
      <trkpt lat="48.03545" lon="7.03339">
        <ele>1284</ele>
        <time>2021-12-19T10:20:05Z</time>
      </trkpt>
      <trkpt lat="48.03547" lon="7.03329">
        <ele>1285</ele>
        <time>2021-12-19T10:20:36Z</time>
      </trkpt>
      <trkpt lat="48.03547" lon="7.0329">
        <ele>1286</ele>
        <time>2021-12-19T10:21:02Z</time>
      </trkpt>
      <trkpt lat="48.03545" lon="7.03282">
        <ele>1285</ele>
        <time>2021-12-19T10:21:07Z</time>
      </trkpt>
      <trkpt lat="48.03542" lon="7.03258">
        <ele>1285</ele>
        <time>2021-12-19T10:21:24Z</time>
      </trkpt>
      <trkpt lat="48.03541" lon="7.03225">
        <ele>1285</ele>
        <time>2021-12-19T10:21:45Z</time>
      </trkpt>
      <trkpt lat="48.03542" lon="7.032">
        <ele>1282</ele>
        <time>2021-12-19T10:22:03Z</time>
      </trkpt>
      <trkpt lat="48.03536" lon="7.03157">
        <ele>1281</ele>
        <time>2021-12-19T10:22:29Z</time>
      </trkpt>
      <trkpt lat="48.03533" lon="7.03131">
        <ele>1282</ele>
        <time>2021-12-19T10:22:45Z</time>
      </trkpt>
      <trkpt lat="48.0353" lon="7.031">
        <ele>1284</ele>
        <time>2021-12-19T10:23:02Z</time>
      </trkpt>
      <trkpt lat="48.03533" lon="7.0307">
        <ele>1284</ele>
        <time>2021-12-19T10:23:20Z</time>
      </trkpt>
      <trkpt lat="48.03538" lon="7.03026">
        <ele>1280</ele>
        <time>2021-12-19T10:23:41Z</time>
      </trkpt>
      <trkpt lat="48.03538" lon="7.03017">
        <ele>1279</ele>
        <time>2021-12-19T10:23:53Z</time>
      </trkpt>
      <trkpt lat="48.03539" lon="7.02996">
        <ele>1276</ele>
        <time>2021-12-19T10:24:02Z</time>
      </trkpt>
      <trkpt lat="48.03542" lon="7.0299">
        <ele>1276</ele>
        <time>2021-12-19T10:24:14Z</time>
      </trkpt>
      <trkpt lat="48.03544" lon="7.02972">
        <ele>1274</ele>
        <time>2021-12-19T10:24:45Z</time>
      </trkpt>
      <trkpt lat="48.03548" lon="7.02938">
        <ele>1270</ele>
        <time>2021-12-19T10:25:12Z</time>
      </trkpt>
      <trkpt lat="48.03547" lon="7.02908">
        <ele>1265</ele>
        <time>2021-12-19T10:25:37Z</time>
      </trkpt>
      <trkpt lat="48.03549" lon="7.02882">
        <ele>1259</ele>
        <time>2021-12-19T10:26:02Z</time>
      </trkpt>
      <trkpt lat="48.03561" lon="7.02868">
        <ele>1257</ele>
        <time>2021-12-19T10:26:24Z</time>
      </trkpt>
      <trkpt lat="48.03564" lon="7.02853">
        <ele>1255</ele>
        <time>2021-12-19T10:26:43Z</time>
      </trkpt>
      <trkpt lat="48.03562" lon="7.02834">
        <ele>1251</ele>
        <time>2021-12-19T10:27:00Z</time>
      </trkpt>
      <trkpt lat="48.03562" lon="7.02812">
        <ele>1246</ele>
        <time>2021-12-19T10:27:20Z</time>
      </trkpt>
      <trkpt lat="48.03563" lon="7.02802">
        <ele>1244</ele>
        <time>2021-12-19T10:27:40Z</time>
      </trkpt>
      <trkpt lat="48.03564" lon="7.02804">
        <ele>1245</ele>
        <time>2021-12-19T10:28:21Z</time>
      </trkpt>
      <trkpt lat="48.03565" lon="7.02804">
        <ele>1245</ele>
        <time>2021-12-19T10:31:55Z</time>
      </trkpt>
      <trkpt lat="48.03566" lon="7.02806">
        <ele>1245</ele>
        <time>2021-12-19T10:32:43Z</time>
      </trkpt>
      <trkpt lat="48.03565" lon="7.02806">
        <ele>1245</ele>
        <time>2021-12-19T10:36:19Z</time>
      </trkpt>
      <trkpt lat="48.03565" lon="7.02806">
        <ele>1245</ele>
        <time>2021-12-19T10:37:59Z</time>
      </trkpt>
      <trkpt lat="48.03565" lon="7.02806">
        <ele>1245</ele>
        <time>2021-12-19T10:41:49Z</time>
      </trkpt>
      <trkpt lat="48.03565" lon="7.02807">
        <ele>1245</ele>
        <time>2021-12-19T10:43:50Z</time>
      </trkpt>
      <trkpt lat="48.03564" lon="7.02807">
        <ele>1245</ele>
        <time>2021-12-19T10:46:44Z</time>
      </trkpt>
      <trkpt lat="48.03563" lon="7.02806">
        <ele>1245</ele>
        <time>2021-12-19T10:48:39Z</time>
      </trkpt>
      <trkpt lat="48.03563" lon="7.02806">
        <ele>1245</ele>
        <time>2021-12-19T10:50:35Z</time>
      </trkpt>
      <trkpt lat="48.03563" lon="7.02805">
        <ele>1245</ele>
        <time>2021-12-19T10:51:13Z</time>
      </trkpt>
      <trkpt lat="48.03563" lon="7.02804">
        <ele>1245</ele>
        <time>2021-12-19T10:52:05Z</time>
      </trkpt>
      <trkpt lat="48.03565" lon="7.02805">
        <ele>1245</ele>
        <time>2021-12-19T10:52:40Z</time>
      </trkpt>
      <trkpt lat="48.03565" lon="7.02806">
        <ele>1245</ele>
        <time>2021-12-19T10:53:11Z</time>
      </trkpt>
      <trkpt lat="48.03565" lon="7.02806">
        <ele>1245</ele>
        <time>2021-12-19T10:53:27Z</time>
      </trkpt>
      <trkpt lat="48.03566" lon="7.02809">
        <ele>1246</ele>
        <time>2021-12-19T10:53:46Z</time>
      </trkpt>
      <trkpt lat="48.03569" lon="7.02819">
        <ele>1249</ele>
        <time>2021-12-19T10:54:01Z</time>
      </trkpt>
      <trkpt lat="48.03576" lon="7.0282">
        <ele>1249</ele>
        <time>2021-12-19T10:54:15Z</time>
      </trkpt>
      <trkpt lat="48.0359" lon="7.02812">
        <ele>1246</ele>
        <time>2021-12-19T10:54:38Z</time>
      </trkpt>
      <trkpt lat="48.03598" lon="7.02803">
        <ele>1243</ele>
        <time>2021-12-19T10:54:58Z</time>
      </trkpt>
      <trkpt lat="48.03606" lon="7.02791">
        <ele>1240</ele>
        <time>2021-12-19T10:55:19Z</time>
      </trkpt>
      <trkpt lat="48.03611" lon="7.0278">
        <ele>1239</ele>
        <time>2021-12-19T10:55:38Z</time>
      </trkpt>
      <trkpt lat="48.03615" lon="7.02771">
        <ele>1237</ele>
        <time>2021-12-19T10:55:58Z</time>
      </trkpt>
      <trkpt lat="48.03619" lon="7.02755">
        <ele>1236</ele>
        <time>2021-12-19T10:56:18Z</time>
      </trkpt>
      <trkpt lat="48.03623" lon="7.02739">
        <ele>1234</ele>
        <time>2021-12-19T10:56:38Z</time>
      </trkpt>
      <trkpt lat="48.03627" lon="7.02725">
        <ele>1232</ele>
        <time>2021-12-19T10:56:55Z</time>
      </trkpt>
      <trkpt lat="48.03634" lon="7.0271">
        <ele>1229</ele>
        <time>2021-12-19T10:57:14Z</time>
      </trkpt>
      <trkpt lat="48.03638" lon="7.02684">
        <ele>1226</ele>
        <time>2021-12-19T10:57:35Z</time>
      </trkpt>
      <trkpt lat="48.03636" lon="7.02668">
        <ele>1225</ele>
        <time>2021-12-19T10:57:46Z</time>
      </trkpt>
      <trkpt lat="48.03637" lon="7.02647">
        <ele>1224</ele>
        <time>2021-12-19T10:58:01Z</time>
      </trkpt>
      <trkpt lat="48.03636" lon="7.0263">
        <ele>1223</ele>
        <time>2021-12-19T10:58:18Z</time>
      </trkpt>
      <trkpt lat="48.03636" lon="7.02625">
        <ele>1223</ele>
        <time>2021-12-19T10:58:34Z</time>
      </trkpt>
      <trkpt lat="48.03636" lon="7.02626">
        <ele>1223</ele>
        <time>2021-12-19T10:59:11Z</time>
      </trkpt>
      <trkpt lat="48.03637" lon="7.02621">
        <ele>1223</ele>
        <time>2021-12-19T10:59:37Z</time>
      </trkpt>
      <trkpt lat="48.03638" lon="7.026">
        <ele>1224</ele>
        <time>2021-12-19T10:59:57Z</time>
      </trkpt>
      <trkpt lat="48.03633" lon="7.02578">
        <ele>1225</ele>
        <time>2021-12-19T11:00:19Z</time>
      </trkpt>
      <trkpt lat="48.03641" lon="7.02561">
        <ele>1226</ele>
        <time>2021-12-19T11:00:44Z</time>
      </trkpt>
      <trkpt lat="48.03655" lon="7.0254">
        <ele>1228</ele>
        <time>2021-12-19T11:01:11Z</time>
      </trkpt>
      <trkpt lat="48.0367" lon="7.02522">
        <ele>1232</ele>
        <time>2021-12-19T11:01:38Z</time>
      </trkpt>
      <trkpt lat="48.0368" lon="7.02501">
        <ele>1239</ele>
        <time>2021-12-19T11:02:06Z</time>
      </trkpt>
      <trkpt lat="48.03677" lon="7.02492">
        <ele>1242</ele>
        <time>2021-12-19T11:02:29Z</time>
      </trkpt>
      <trkpt lat="48.03668" lon="7.02483">
        <ele>1246</ele>
        <time>2021-12-19T11:02:51Z</time>
      </trkpt>
      <trkpt lat="48.03661" lon="7.02473">
        <ele>1250</ele>
        <time>2021-12-19T11:03:08Z</time>
      </trkpt>
      <trkpt lat="48.03648" lon="7.02468">
        <ele>1250</ele>
        <time>2021-12-19T11:03:30Z</time>
      </trkpt>
      <trkpt lat="48.03639" lon="7.02462">
        <ele>1252</ele>
        <time>2021-12-19T11:03:46Z</time>
      </trkpt>
      <trkpt lat="48.0363" lon="7.02458">
        <ele>1251</ele>
        <time>2021-12-19T11:04:02Z</time>
      </trkpt>
      <trkpt lat="48.0362" lon="7.02448">
        <ele>1250</ele>
        <time>2021-12-19T11:04:21Z</time>
      </trkpt>
      <trkpt lat="48.03609" lon="7.02434">
        <ele>1249</ele>
        <time>2021-12-19T11:04:42Z</time>
      </trkpt>
      <trkpt lat="48.03608" lon="7.0242">
        <ele>1251</ele>
        <time>2021-12-19T11:05:00Z</time>
      </trkpt>
      <trkpt lat="48.0362" lon="7.02414">
        <ele>1258</ele>
        <time>2021-12-19T11:05:19Z</time>
      </trkpt>
      <trkpt lat="48.03629" lon="7.02406">
        <ele>1262</ele>
        <time>2021-12-19T11:05:38Z</time>
      </trkpt>
      <trkpt lat="48.03631" lon="7.02403">
        <ele>1264</ele>
        <time>2021-12-19T11:05:42Z</time>
      </trkpt>
      <trkpt lat="48.03638" lon="7.02393">
        <ele>1267</ele>
        <time>2021-12-19T11:05:59Z</time>
      </trkpt>
      <trkpt lat="48.03643" lon="7.02372">
        <ele>1269</ele>
        <time>2021-12-19T11:06:23Z</time>
      </trkpt>
      <trkpt lat="48.03645" lon="7.02354">
        <ele>1270</ele>
        <time>2021-12-19T11:06:42Z</time>
      </trkpt>
      <trkpt lat="48.03645" lon="7.02334">
        <ele>1271</ele>
        <time>2021-12-19T11:07:05Z</time>
      </trkpt>
      <trkpt lat="48.03647" lon="7.02308">
        <ele>1273</ele>
        <time>2021-12-19T11:07:33Z</time>
      </trkpt>
      <trkpt lat="48.03652" lon="7.02298">
        <ele>1275</ele>
        <time>2021-12-19T11:07:48Z</time>
      </trkpt>
      <trkpt lat="48.03662" lon="7.02289">
        <ele>1281</ele>
        <time>2021-12-19T11:08:08Z</time>
      </trkpt>
      <trkpt lat="48.03672" lon="7.02278">
        <ele>1285</ele>
        <time>2021-12-19T11:08:28Z</time>
      </trkpt>
      <trkpt lat="48.03682" lon="7.02258">
        <ele>1286</ele>
        <time>2021-12-19T11:08:57Z</time>
      </trkpt>
      <trkpt lat="48.03688" lon="7.02242">
        <ele>1288</ele>
        <time>2021-12-19T11:09:16Z</time>
      </trkpt>
      <trkpt lat="48.03696" lon="7.02221">
        <ele>1290</ele>
        <time>2021-12-19T11:09:42Z</time>
      </trkpt>
      <trkpt lat="48.03707" lon="7.02199">
        <ele>1293</ele>
        <time>2021-12-19T11:10:10Z</time>
      </trkpt>
      <trkpt lat="48.03715" lon="7.02182">
        <ele>1295</ele>
        <time>2021-12-19T11:10:31Z</time>
      </trkpt>
      <trkpt lat="48.03726" lon="7.02163">
        <ele>1297</ele>
        <time>2021-12-19T11:10:57Z</time>
      </trkpt>
      <trkpt lat="48.03734" lon="7.02149">
        <ele>1298</ele>
        <time>2021-12-19T11:11:15Z</time>
      </trkpt>
      <trkpt lat="48.03741" lon="7.02131">
        <ele>1301</ele>
        <time>2021-12-19T11:11:35Z</time>
      </trkpt>
      <trkpt lat="48.03749" lon="7.02115">
        <ele>1304</ele>
        <time>2021-12-19T11:11:53Z</time>
      </trkpt>
      <trkpt lat="48.03757" lon="7.02096">
        <ele>1306</ele>
        <time>2021-12-19T11:12:15Z</time>
      </trkpt>
      <trkpt lat="48.03764" lon="7.02068">
        <ele>1307</ele>
        <time>2021-12-19T11:12:43Z</time>
      </trkpt>
      <trkpt lat="48.03771" lon="7.02047">
        <ele>1309</ele>
        <time>2021-12-19T11:13:05Z</time>
      </trkpt>
      <trkpt lat="48.03778" lon="7.02034">
        <ele>1309</ele>
        <time>2021-12-19T11:13:23Z</time>
      </trkpt>
      <trkpt lat="48.03784" lon="7.02019">
        <ele>1311</ele>
        <time>2021-12-19T11:13:39Z</time>
      </trkpt>
      <trkpt lat="48.03788" lon="7.02001">
        <ele>1313</ele>
        <time>2021-12-19T11:13:55Z</time>
      </trkpt>
      <trkpt lat="48.03796" lon="7.01977">
        <ele>1317</ele>
        <time>2021-12-19T11:14:21Z</time>
      </trkpt>
      <trkpt lat="48.03803" lon="7.01961">
        <ele>1320</ele>
        <time>2021-12-19T11:14:41Z</time>
      </trkpt>
      <trkpt lat="48.03803" lon="7.01942">
        <ele>1323</ele>
        <time>2021-12-19T11:15:01Z</time>
      </trkpt>
      <trkpt lat="48.03801" lon="7.01933">
        <ele>1323</ele>
        <time>2021-12-19T11:15:17Z</time>
      </trkpt>
      <trkpt lat="48.03796" lon="7.01922">
        <ele>1324</ele>
        <time>2021-12-19T11:15:36Z</time>
      </trkpt>
      <trkpt lat="48.0379" lon="7.0191">
        <ele>1325</ele>
        <time>2021-12-19T11:15:55Z</time>
      </trkpt>
      <trkpt lat="48.03783" lon="7.01897">
        <ele>1326</ele>
        <time>2021-12-19T11:16:13Z</time>
      </trkpt>
      <trkpt lat="48.03776" lon="7.01881">
        <ele>1327</ele>
        <time>2021-12-19T11:16:34Z</time>
      </trkpt>
      <trkpt lat="48.0377" lon="7.01868">
        <ele>1328</ele>
        <time>2021-12-19T11:16:51Z</time>
      </trkpt>
      <trkpt lat="48.03763" lon="7.01853">
        <ele>1329</ele>
        <time>2021-12-19T11:17:11Z</time>
      </trkpt>
      <trkpt lat="48.03756" lon="7.01837">
        <ele>1331</ele>
        <time>2021-12-19T11:17:32Z</time>
      </trkpt>
      <trkpt lat="48.03748" lon="7.01826">
        <ele>1332</ele>
        <time>2021-12-19T11:17:50Z</time>
      </trkpt>
      <trkpt lat="48.03743" lon="7.01813">
        <ele>1334</ele>
        <time>2021-12-19T11:18:07Z</time>
      </trkpt>
      <trkpt lat="48.03736" lon="7.01799">
        <ele>1335</ele>
        <time>2021-12-19T11:18:26Z</time>
      </trkpt>
      <trkpt lat="48.03727" lon="7.01787">
        <ele>1337</ele>
        <time>2021-12-19T11:18:45Z</time>
      </trkpt>
      <trkpt lat="48.03724" lon="7.0177">
        <ele>1340</ele>
        <time>2021-12-19T11:19:04Z</time>
      </trkpt>
      <trkpt lat="48.03721" lon="7.01753">
        <ele>1343</ele>
        <time>2021-12-19T11:19:23Z</time>
      </trkpt>
      <trkpt lat="48.03718" lon="7.01736">
        <ele>1344</ele>
        <time>2021-12-19T11:19:41Z</time>
      </trkpt>
      <trkpt lat="48.03719" lon="7.0172">
        <ele>1344</ele>
        <time>2021-12-19T11:20:01Z</time>
      </trkpt>
      <trkpt lat="48.03727" lon="7.01718">
        <ele>1346</ele>
        <time>2021-12-19T11:20:16Z</time>
      </trkpt>
      <trkpt lat="48.03739" lon="7.01719">
        <ele>1347</ele>
        <time>2021-12-19T11:20:37Z</time>
      </trkpt>
      <trkpt lat="48.03748" lon="7.01716">
        <ele>1348</ele>
        <time>2021-12-19T11:20:53Z</time>
      </trkpt>
      <trkpt lat="48.03749" lon="7.01689">
        <ele>1347</ele>
        <time>2021-12-19T11:21:21Z</time>
      </trkpt>
      <trkpt lat="48.03749" lon="7.01659">
        <ele>1348</ele>
        <time>2021-12-19T11:21:49Z</time>
      </trkpt>
      <trkpt lat="48.0375" lon="7.01635">
        <ele>1349</ele>
        <time>2021-12-19T11:22:10Z</time>
      </trkpt>
      <trkpt lat="48.03746" lon="7.01606">
        <ele>1352</ele>
        <time>2021-12-19T11:22:33Z</time>
      </trkpt>
      <trkpt lat="48.03741" lon="7.01585">
        <ele>1351</ele>
        <time>2021-12-19T11:22:51Z</time>
      </trkpt>
      <trkpt lat="48.03737" lon="7.01563">
        <ele>1348</ele>
        <time>2021-12-19T11:23:11Z</time>
      </trkpt>
      <trkpt lat="48.03735" lon="7.01552">
        <ele>1346</ele>
        <time>2021-12-19T11:23:27Z</time>
      </trkpt>
      <trkpt lat="48.03734" lon="7.01549">
        <ele>1344</ele>
        <time>2021-12-19T11:24:02Z</time>
      </trkpt>
      <trkpt lat="48.03735" lon="7.01551">
        <ele>1346</ele>
        <time>2021-12-19T11:25:32Z</time>
      </trkpt>
      <trkpt lat="48.03734" lon="7.01553">
        <ele>1345</ele>
        <time>2021-12-19T11:27:50Z</time>
      </trkpt>
      <trkpt lat="48.03736" lon="7.01552">
        <ele>1346</ele>
        <time>2021-12-19T11:28:51Z</time>
      </trkpt>
      <trkpt lat="48.03736" lon="7.01552">
        <ele>1346</ele>
        <time>2021-12-19T11:29:29Z</time>
      </trkpt>
      <trkpt lat="48.03735" lon="7.01551">
        <ele>1345</ele>
        <time>2021-12-19T11:29:58Z</time>
      </trkpt>
      <trkpt lat="48.03731" lon="7.01533">
        <ele>1338</ele>
        <time>2021-12-19T11:30:04Z</time>
      </trkpt>
      <trkpt lat="48.0373" lon="7.01522">
        <ele>1336</ele>
        <time>2021-12-19T11:30:13Z</time>
      </trkpt>
      <trkpt lat="48.03733" lon="7.01511">
        <ele>1337</ele>
        <time>2021-12-19T11:30:26Z</time>
      </trkpt>
      <trkpt lat="48.03739" lon="7.015">
        <ele>1338</ele>
        <time>2021-12-19T11:30:39Z</time>
      </trkpt>
      <trkpt lat="48.03742" lon="7.01489">
        <ele>1338</ele>
        <time>2021-12-19T11:30:42Z</time>
      </trkpt>
      <trkpt lat="48.03744" lon="7.01485">
        <ele>1339</ele>
        <time>2021-12-19T11:30:43Z</time>
      </trkpt>
      <trkpt lat="48.03747" lon="7.01482">
        <ele>1339</ele>
        <time>2021-12-19T11:30:44Z</time>
      </trkpt>
      <trkpt lat="48.03749" lon="7.01477">
        <ele>1340</ele>
        <time>2021-12-19T11:30:45Z</time>
      </trkpt>
      <trkpt lat="48.0375" lon="7.01471">
        <ele>1339</ele>
        <time>2021-12-19T11:30:46Z</time>
      </trkpt>
      <trkpt lat="48.03751" lon="7.01464">
        <ele>1339</ele>
        <time>2021-12-19T11:30:47Z</time>
      </trkpt>
      <trkpt lat="48.03753" lon="7.0146">
        <ele>1339</ele>
        <time>2021-12-19T11:30:48Z</time>
      </trkpt>
      <trkpt lat="48.03756" lon="7.01456">
        <ele>1338</ele>
        <time>2021-12-19T11:30:49Z</time>
      </trkpt>
      <trkpt lat="48.03766" lon="7.01445">
        <ele>1340</ele>
        <time>2021-12-19T11:30:53Z</time>
      </trkpt>
      <trkpt lat="48.03768" lon="7.01442">
        <ele>1340</ele>
        <time>2021-12-19T11:30:54Z</time>
      </trkpt>
      <trkpt lat="48.0377" lon="7.01438">
        <ele>1340</ele>
        <time>2021-12-19T11:30:55Z</time>
      </trkpt>
      <trkpt lat="48.03773" lon="7.01435">
        <ele>1340</ele>
        <time>2021-12-19T11:30:56Z</time>
      </trkpt>
      <trkpt lat="48.03776" lon="7.01432">
        <ele>1340</ele>
        <time>2021-12-19T11:30:57Z</time>
      </trkpt>
      <trkpt lat="48.03778" lon="7.01431">
        <ele>1341</ele>
        <time>2021-12-19T11:30:58Z</time>
      </trkpt>
      <trkpt lat="48.03777" lon="7.01432">
        <ele>1341</ele>
        <time>2021-12-19T11:31:11Z</time>
      </trkpt>
      <trkpt lat="48.03782" lon="7.01428">
        <ele>1341</ele>
        <time>2021-12-19T11:31:25Z</time>
      </trkpt>
      <trkpt lat="48.03783" lon="7.01426">
        <ele>1340</ele>
        <time>2021-12-19T11:31:26Z</time>
      </trkpt>
      <trkpt lat="48.03784" lon="7.0142">
        <ele>1339</ele>
        <time>2021-12-19T11:31:27Z</time>
      </trkpt>
      <trkpt lat="48.03785" lon="7.01414">
        <ele>1339</ele>
        <time>2021-12-19T11:31:28Z</time>
      </trkpt>
      <trkpt lat="48.03787" lon="7.01408">
        <ele>1338</ele>
        <time>2021-12-19T11:31:29Z</time>
      </trkpt>
      <trkpt lat="48.0379" lon="7.01401">
        <ele>1337</ele>
        <time>2021-12-19T11:31:30Z</time>
      </trkpt>
      <trkpt lat="48.03792" lon="7.01394">
        <ele>1335</ele>
        <time>2021-12-19T11:31:31Z</time>
      </trkpt>
      <trkpt lat="48.03794" lon="7.0139">
        <ele>1335</ele>
        <time>2021-12-19T11:31:32Z</time>
      </trkpt>
      <trkpt lat="48.03815" lon="7.01356">
        <ele>1329</ele>
        <time>2021-12-19T11:31:39Z</time>
      </trkpt>
      <trkpt lat="48.03847" lon="7.01331">
        <ele>1327</ele>
        <time>2021-12-19T11:31:45Z</time>
      </trkpt>
      <trkpt lat="48.03854" lon="7.01323">
        <ele>1326</ele>
        <time>2021-12-19T11:31:47Z</time>
      </trkpt>
      <trkpt lat="48.0386" lon="7.013">
        <ele>1324</ele>
        <time>2021-12-19T11:31:54Z</time>
      </trkpt>
      <trkpt lat="48.03857" lon="7.01271">
        <ele>1321</ele>
        <time>2021-12-19T11:32:00Z</time>
      </trkpt>
      <trkpt lat="48.03852" lon="7.01244">
        <ele>1317</ele>
        <time>2021-12-19T11:32:06Z</time>
      </trkpt>
      <trkpt lat="48.03845" lon="7.01239">
        <ele>1316</ele>
        <time>2021-12-19T11:32:08Z</time>
      </trkpt>
      <trkpt lat="48.0384" lon="7.01229">
        <ele>1315</ele>
        <time>2021-12-19T11:32:10Z</time>
      </trkpt>
      <trkpt lat="48.03835" lon="7.01203">
        <ele>1312</ele>
        <time>2021-12-19T11:32:15Z</time>
      </trkpt>
      <trkpt lat="48.03828" lon="7.01199">
        <ele>1310</ele>
        <time>2021-12-19T11:32:17Z</time>
      </trkpt>
      <trkpt lat="48.03816" lon="7.01196">
        <ele>1308</ele>
        <time>2021-12-19T11:32:21Z</time>
      </trkpt>
      <trkpt lat="48.03812" lon="7.01197">
        <ele>1308</ele>
        <time>2021-12-19T11:32:28Z</time>
      </trkpt>
      <trkpt lat="48.03809" lon="7.01195">
        <ele>1307</ele>
        <time>2021-12-19T11:32:48Z</time>
      </trkpt>
      <trkpt lat="48.03807" lon="7.01183">
        <ele>1305</ele>
        <time>2021-12-19T11:32:53Z</time>
      </trkpt>
      <trkpt lat="48.03817" lon="7.01169">
        <ele>1305</ele>
        <time>2021-12-19T11:32:58Z</time>
      </trkpt>
      <trkpt lat="48.03809" lon="7.01145">
        <ele>1300</ele>
        <time>2021-12-19T11:33:04Z</time>
      </trkpt>
      <trkpt lat="48.03818" lon="7.01117">
        <ele>1294</ele>
        <time>2021-12-19T11:33:10Z</time>
      </trkpt>
      <trkpt lat="48.03816" lon="7.01097">
        <ele>1289</ele>
        <time>2021-12-19T11:33:14Z</time>
      </trkpt>
      <trkpt lat="48.03819" lon="7.01094">
        <ele>1289</ele>
        <time>2021-12-19T11:33:15Z</time>
      </trkpt>
      <trkpt lat="48.03826" lon="7.01085">
        <ele>1287</ele>
        <time>2021-12-19T11:33:17Z</time>
      </trkpt>
      <trkpt lat="48.0382" lon="7.01069">
        <ele>1283</ele>
        <time>2021-12-19T11:33:21Z</time>
      </trkpt>
      <trkpt lat="48.03821" lon="7.01064">
        <ele>1282</ele>
        <time>2021-12-19T11:33:22Z</time>
      </trkpt>
      <trkpt lat="48.03823" lon="7.0106">
        <ele>1282</ele>
        <time>2021-12-19T11:33:23Z</time>
      </trkpt>
      <trkpt lat="48.03827" lon="7.01053">
        <ele>1281</ele>
        <time>2021-12-19T11:33:25Z</time>
      </trkpt>
      <trkpt lat="48.03826" lon="7.01028">
        <ele>1276</ele>
        <time>2021-12-19T11:33:31Z</time>
      </trkpt>
      <trkpt lat="48.03828" lon="7.01024">
        <ele>1275</ele>
        <time>2021-12-19T11:33:32Z</time>
      </trkpt>
      <trkpt lat="48.03833" lon="7.01017">
        <ele>1274</ele>
        <time>2021-12-19T11:33:34Z</time>
      </trkpt>
      <trkpt lat="48.03837" lon="7.00994">
        <ele>1270</ele>
        <time>2021-12-19T11:33:39Z</time>
      </trkpt>
      <trkpt lat="48.0384" lon="7.00991">
        <ele>1269</ele>
        <time>2021-12-19T11:33:40Z</time>
      </trkpt>
      <trkpt lat="48.03842" lon="7.00988">
        <ele>1269</ele>
        <time>2021-12-19T11:33:41Z</time>
      </trkpt>
      <trkpt lat="48.03844" lon="7.00985">
        <ele>1268</ele>
        <time>2021-12-19T11:33:42Z</time>
      </trkpt>
      <trkpt lat="48.03845" lon="7.00979">
        <ele>1267</ele>
        <time>2021-12-19T11:33:43Z</time>
      </trkpt>
      <trkpt lat="48.03843" lon="7.00974">
        <ele>1266</ele>
        <time>2021-12-19T11:33:44Z</time>
      </trkpt>
      <trkpt lat="48.03842" lon="7.00959">
        <ele>1264</ele>
        <time>2021-12-19T11:33:47Z</time>
      </trkpt>
      <trkpt lat="48.03836" lon="7.00937">
        <ele>1260</ele>
        <time>2021-12-19T11:33:51Z</time>
      </trkpt>
      <trkpt lat="48.03815" lon="7.00927">
        <ele>1258</ele>
        <time>2021-12-19T11:33:56Z</time>
      </trkpt>
      <trkpt lat="48.03798" lon="7.00916">
        <ele>1256</ele>
        <time>2021-12-19T11:34:01Z</time>
      </trkpt>
      <trkpt lat="48.03793" lon="7.00893">
        <ele>1252</ele>
        <time>2021-12-19T11:34:06Z</time>
      </trkpt>
      <trkpt lat="48.0377" lon="7.00875">
        <ele>1250</ele>
        <time>2021-12-19T11:34:12Z</time>
      </trkpt>
      <trkpt lat="48.03764" lon="7.0087">
        <ele>1249</ele>
        <time>2021-12-19T11:34:14Z</time>
      </trkpt>
      <trkpt lat="48.0376" lon="7.00842">
        <ele>1245</ele>
        <time>2021-12-19T11:34:20Z</time>
      </trkpt>
      <trkpt lat="48.03758" lon="7.00838">
        <ele>1244</ele>
        <time>2021-12-19T11:34:21Z</time>
      </trkpt>
      <trkpt lat="48.03752" lon="7.00833">
        <ele>1243</ele>
        <time>2021-12-19T11:34:23Z</time>
      </trkpt>
      <trkpt lat="48.0374" lon="7.00825">
        <ele>1243</ele>
        <time>2021-12-19T11:34:28Z</time>
      </trkpt>
      <trkpt lat="48.03729" lon="7.00813">
        <ele>1242</ele>
        <time>2021-12-19T11:34:34Z</time>
      </trkpt>
      <trkpt lat="48.0373" lon="7.0081">
        <ele>1242</ele>
        <time>2021-12-19T11:34:35Z</time>
      </trkpt>
      <trkpt lat="48.03737" lon="7.00804">
        <ele>1241</ele>
        <time>2021-12-19T11:34:39Z</time>
      </trkpt>
      <trkpt lat="48.03738" lon="7.00805">
        <ele>1241</ele>
        <time>2021-12-19T11:34:47Z</time>
      </trkpt>
      <trkpt lat="48.0374" lon="7.008">
        <ele>1240</ele>
        <time>2021-12-19T11:35:23Z</time>
      </trkpt>
      <trkpt lat="48.03743" lon="7.00788">
        <ele>1239</ele>
        <time>2021-12-19T11:36:08Z</time>
      </trkpt>
      <trkpt lat="48.03744" lon="7.00789">
        <ele>1239</ele>
        <time>2021-12-19T11:36:40Z</time>
      </trkpt>
      <trkpt lat="48.03747" lon="7.00788">
        <ele>1239</ele>
        <time>2021-12-19T11:36:59Z</time>
      </trkpt>
      <trkpt lat="48.03749" lon="7.00786">
        <ele>1238</ele>
        <time>2021-12-19T11:37:00Z</time>
      </trkpt>
      <trkpt lat="48.03758" lon="7.00781">
        <ele>1238</ele>
        <time>2021-12-19T11:37:02Z</time>
      </trkpt>
      <trkpt lat="48.03762" lon="7.00781">
        <ele>1238</ele>
        <time>2021-12-19T11:37:03Z</time>
      </trkpt>
      <trkpt lat="48.03766" lon="7.00781">
        <ele>1238</ele>
        <time>2021-12-19T11:37:04Z</time>
      </trkpt>
      <trkpt lat="48.03771" lon="7.00778">
        <ele>1238</ele>
        <time>2021-12-19T11:37:05Z</time>
      </trkpt>
      <trkpt lat="48.03776" lon="7.00774">
        <ele>1237</ele>
        <time>2021-12-19T11:37:06Z</time>
      </trkpt>
      <trkpt lat="48.03781" lon="7.00769">
        <ele>1236</ele>
        <time>2021-12-19T11:37:07Z</time>
      </trkpt>
      <trkpt lat="48.03786" lon="7.00765">
        <ele>1235</ele>
        <time>2021-12-19T11:37:08Z</time>
      </trkpt>
      <trkpt lat="48.03791" lon="7.00763">
        <ele>1234</ele>
        <time>2021-12-19T11:37:09Z</time>
      </trkpt>
      <trkpt lat="48.03795" lon="7.00761">
        <ele>1233</ele>
        <time>2021-12-19T11:37:10Z</time>
      </trkpt>
      <trkpt lat="48.03798" lon="7.00759">
        <ele>1232</ele>
        <time>2021-12-19T11:37:11Z</time>
      </trkpt>
      <trkpt lat="48.03801" lon="7.00757">
        <ele>1232</ele>
        <time>2021-12-19T11:37:12Z</time>
      </trkpt>
      <trkpt lat="48.03809" lon="7.00749">
        <ele>1229</ele>
        <time>2021-12-19T11:37:15Z</time>
      </trkpt>
      <trkpt lat="48.03816" lon="7.0074">
        <ele>1227</ele>
        <time>2021-12-19T11:37:17Z</time>
      </trkpt>
      <trkpt lat="48.03841" lon="7.00716">
        <ele>1222</ele>
        <time>2021-12-19T11:37:26Z</time>
      </trkpt>
      <trkpt lat="48.03857" lon="7.00699">
        <ele>1220</ele>
        <time>2021-12-19T11:37:33Z</time>
      </trkpt>
      <trkpt lat="48.03868" lon="7.00681">
        <ele>1219</ele>
        <time>2021-12-19T11:37:39Z</time>
      </trkpt>
      <trkpt lat="48.03882" lon="7.00653">
        <ele>1215</ele>
        <time>2021-12-19T11:37:47Z</time>
      </trkpt>
      <trkpt lat="48.03885" lon="7.00643">
        <ele>1214</ele>
        <time>2021-12-19T11:37:50Z</time>
      </trkpt>
      <trkpt lat="48.03881" lon="7.00614">
        <ele>1210</ele>
        <time>2021-12-19T11:37:58Z</time>
      </trkpt>
      <trkpt lat="48.0388" lon="7.00614">
        <ele>1210</ele>
        <time>2021-12-19T11:38:04Z</time>
      </trkpt>
      <trkpt lat="48.0388" lon="7.00613">
        <ele>1210</ele>
        <time>2021-12-19T11:38:09Z</time>
      </trkpt>
      <trkpt lat="48.0388" lon="7.00609">
        <ele>1210</ele>
        <time>2021-12-19T11:38:12Z</time>
      </trkpt>
      <trkpt lat="48.03872" lon="7.00604">
        <ele>1209</ele>
        <time>2021-12-19T11:38:16Z</time>
      </trkpt>
      <trkpt lat="48.03848" lon="7.006">
        <ele>1209</ele>
        <time>2021-12-19T11:38:30Z</time>
      </trkpt>
      <trkpt lat="48.03848" lon="7.006">
        <ele>1209</ele>
        <time>2021-12-19T11:38:33Z</time>
      </trkpt>
      <trkpt lat="48.03843" lon="7.00595">
        <ele>1208</ele>
        <time>2021-12-19T11:38:38Z</time>
      </trkpt>
      <trkpt lat="48.03839" lon="7.00592">
        <ele>1208</ele>
        <time>2021-12-19T11:38:41Z</time>
      </trkpt>
      <trkpt lat="48.03839" lon="7.00583">
        <ele>1206</ele>
        <time>2021-12-19T11:38:45Z</time>
      </trkpt>
      <trkpt lat="48.03841" lon="7.00581">
        <ele>1206</ele>
        <time>2021-12-19T11:38:55Z</time>
      </trkpt>
      <trkpt lat="48.03841" lon="7.00579">
        <ele>1205</ele>
        <time>2021-12-19T11:38:58Z</time>
      </trkpt>
      <trkpt lat="48.03834" lon="7.0057">
        <ele>1204</ele>
        <time>2021-12-19T11:39:03Z</time>
      </trkpt>
      <trkpt lat="48.03831" lon="7.00567">
        <ele>1203</ele>
        <time>2021-12-19T11:39:16Z</time>
      </trkpt>
      <trkpt lat="48.03819" lon="7.00562">
        <ele>1202</ele>
        <time>2021-12-19T11:39:27Z</time>
      </trkpt>
      <trkpt lat="48.03816" lon="7.00554">
        <ele>1200</ele>
        <time>2021-12-19T11:39:38Z</time>
      </trkpt>
      <trkpt lat="48.03814" lon="7.00546">
        <ele>1198</ele>
        <time>2021-12-19T11:39:42Z</time>
      </trkpt>
      <trkpt lat="48.03812" lon="7.00526">
        <ele>1194</ele>
        <time>2021-12-19T11:39:51Z</time>
      </trkpt>
      <trkpt lat="48.03813" lon="7.00523">
        <ele>1193</ele>
        <time>2021-12-19T11:39:52Z</time>
      </trkpt>
      <trkpt lat="48.03813" lon="7.00513">
        <ele>1191</ele>
        <time>2021-12-19T11:39:56Z</time>
      </trkpt>
      <trkpt lat="48.03811" lon="7.00505">
        <ele>1189</ele>
        <time>2021-12-19T11:40:03Z</time>
      </trkpt>
      <trkpt lat="48.03811" lon="7.00502">
        <ele>1189</ele>
        <time>2021-12-19T11:40:10Z</time>
      </trkpt>
      <trkpt lat="48.03816" lon="7.00486">
        <ele>1187</ele>
        <time>2021-12-19T11:40:27Z</time>
      </trkpt>
      <trkpt lat="48.03818" lon="7.00473">
        <ele>1185</ele>
        <time>2021-12-19T11:40:35Z</time>
      </trkpt>
      <trkpt lat="48.03815" lon="7.0045">
        <ele>1182</ele>
        <time>2021-12-19T11:40:43Z</time>
      </trkpt>
      <trkpt lat="48.03816" lon="7.00437">
        <ele>1180</ele>
        <time>2021-12-19T11:40:48Z</time>
      </trkpt>
      <trkpt lat="48.03816" lon="7.00432">
        <ele>1179</ele>
        <time>2021-12-19T11:40:50Z</time>
      </trkpt>
      <trkpt lat="48.03811" lon="7.00423">
        <ele>1176</ele>
        <time>2021-12-19T11:41:00Z</time>
      </trkpt>
      <trkpt lat="48.0381" lon="7.00423">
        <ele>1176</ele>
        <time>2021-12-19T11:41:03Z</time>
      </trkpt>
      <trkpt lat="48.03806" lon="7.00411">
        <ele>1173</ele>
        <time>2021-12-19T11:41:17Z</time>
      </trkpt>
      <trkpt lat="48.03806" lon="7.00402">
        <ele>1171</ele>
        <time>2021-12-19T11:41:20Z</time>
      </trkpt>
      <trkpt lat="48.03804" lon="7.00389">
        <ele>1168</ele>
        <time>2021-12-19T11:41:29Z</time>
      </trkpt>
      <trkpt lat="48.03806" lon="7.00373">
        <ele>1165</ele>
        <time>2021-12-19T11:41:41Z</time>
      </trkpt>
      <trkpt lat="48.03806" lon="7.0036">
        <ele>1162</ele>
        <time>2021-12-19T11:41:45Z</time>
      </trkpt>
      <trkpt lat="48.03794" lon="7.00354">
        <ele>1160</ele>
        <time>2021-12-19T11:41:53Z</time>
      </trkpt>
      <trkpt lat="48.03791" lon="7.00347">
        <ele>1159</ele>
        <time>2021-12-19T11:42:04Z</time>
      </trkpt>
      <trkpt lat="48.03788" lon="7.00344">
        <ele>1158</ele>
        <time>2021-12-19T11:42:06Z</time>
      </trkpt>
      <trkpt lat="48.03788" lon="7.0034">
        <ele>1158</ele>
        <time>2021-12-19T11:42:09Z</time>
      </trkpt>
      <trkpt lat="48.03788" lon="7.00329">
        <ele>1156</ele>
        <time>2021-12-19T11:42:14Z</time>
      </trkpt>
      <trkpt lat="48.03793" lon="7.00305">
        <ele>1153</ele>
        <time>2021-12-19T11:42:24Z</time>
      </trkpt>
      <trkpt lat="48.03799" lon="7.00297">
        <ele>1152</ele>
        <time>2021-12-19T11:42:33Z</time>
      </trkpt>
      <trkpt lat="48.03807" lon="7.00291">
        <ele>1151</ele>
        <time>2021-12-19T11:42:51Z</time>
      </trkpt>
      <trkpt lat="48.03814" lon="7.0029">
        <ele>1152</ele>
        <time>2021-12-19T11:43:09Z</time>
      </trkpt>
      <trkpt lat="48.03816" lon="7.00288">
        <ele>1152</ele>
        <time>2021-12-19T11:43:24Z</time>
      </trkpt>
      <trkpt lat="48.03818" lon="7.00287">
        <ele>1152</ele>
        <time>2021-12-19T11:43:33Z</time>
      </trkpt>
      <trkpt lat="48.03823" lon="7.00266">
        <ele>1150</ele>
        <time>2021-12-19T11:43:48Z</time>
      </trkpt>
      <trkpt lat="48.03824" lon="7.00262">
        <ele>1149</ele>
        <time>2021-12-19T11:43:50Z</time>
      </trkpt>
      <trkpt lat="48.03846" lon="7.00218">
        <ele>1144</ele>
        <time>2021-12-19T11:44:12Z</time>
      </trkpt>
      <trkpt lat="48.03852" lon="7.00203">
        <ele>1143</ele>
        <time>2021-12-19T11:44:17Z</time>
      </trkpt>
      <trkpt lat="48.03855" lon="7.00196">
        <ele>1142</ele>
        <time>2021-12-19T11:44:22Z</time>
      </trkpt>
      <trkpt lat="48.03869" lon="7.00173">
        <ele>1142</ele>
        <time>2021-12-19T11:44:45Z</time>
      </trkpt>
      <trkpt lat="48.03872" lon="7.00167">
        <ele>1142</ele>
        <time>2021-12-19T11:44:48Z</time>
      </trkpt>
      <trkpt lat="48.03876" lon="7.00156">
        <ele>1142</ele>
        <time>2021-12-19T11:44:52Z</time>
      </trkpt>
      <trkpt lat="48.03881" lon="7.0014">
        <ele>1141</ele>
        <time>2021-12-19T11:45:01Z</time>
      </trkpt>
      <trkpt lat="48.03881" lon="7.00139">
        <ele>1141</ele>
        <time>2021-12-19T11:45:02Z</time>
      </trkpt>
      <trkpt lat="48.0388" lon="7.00135">
        <ele>1140</ele>
        <time>2021-12-19T11:45:04Z</time>
      </trkpt>
      <trkpt lat="48.03883" lon="7.00122">
        <ele>1139</ele>
        <time>2021-12-19T11:45:10Z</time>
      </trkpt>
      <trkpt lat="48.03884" lon="7.00119">
        <ele>1138</ele>
        <time>2021-12-19T11:45:12Z</time>
      </trkpt>
      <trkpt lat="48.03885" lon="7.00116">
        <ele>1138</ele>
        <time>2021-12-19T11:45:15Z</time>
      </trkpt>
      <trkpt lat="48.0389" lon="7.00099">
        <ele>1136</ele>
        <time>2021-12-19T11:45:33Z</time>
      </trkpt>
      <trkpt lat="48.03892" lon="7.00065">
        <ele>1130</ele>
        <time>2021-12-19T11:45:52Z</time>
      </trkpt>
      <trkpt lat="48.03896" lon="7.0006">
        <ele>1130</ele>
        <time>2021-12-19T11:46:17Z</time>
      </trkpt>
      <trkpt lat="48.03899" lon="7.0005">
        <ele>1129</ele>
        <time>2021-12-19T11:46:42Z</time>
      </trkpt>
      <trkpt lat="48.03897" lon="7.00043">
        <ele>1127</ele>
        <time>2021-12-19T11:47:17Z</time>
      </trkpt>
      <trkpt lat="48.03905" lon="7.00031">
        <ele>1126</ele>
        <time>2021-12-19T11:47:32Z</time>
      </trkpt>
      <trkpt lat="48.0392" lon="7.00015">
        <ele>1124</ele>
        <time>2021-12-19T11:47:55Z</time>
      </trkpt>
      <trkpt lat="48.03928" lon="6.99997">
        <ele>1122</ele>
        <time>2021-12-19T11:48:19Z</time>
      </trkpt>
      <trkpt lat="48.03946" lon="6.99982">
        <ele>1121</ele>
        <time>2021-12-19T11:48:43Z</time>
      </trkpt>
      <trkpt lat="48.03948" lon="6.99979">
        <ele>1121</ele>
        <time>2021-12-19T11:48:45Z</time>
      </trkpt>
      <trkpt lat="48.03961" lon="6.99964">
        <ele>1119</ele>
        <time>2021-12-19T11:48:50Z</time>
      </trkpt>
      <trkpt lat="48.03975" lon="6.99952">
        <ele>1118</ele>
        <time>2021-12-19T11:48:53Z</time>
      </trkpt>
      <trkpt lat="48.03983" lon="6.99943">
        <ele>1117</ele>
        <time>2021-12-19T11:48:55Z</time>
      </trkpt>
      <trkpt lat="48.03987" lon="6.99941">
        <ele>1117</ele>
        <time>2021-12-19T11:48:56Z</time>
      </trkpt>
      <trkpt lat="48.03997" lon="6.99938">
        <ele>1117</ele>
        <time>2021-12-19T11:48:58Z</time>
      </trkpt>
      <trkpt lat="48.04003" lon="6.99935">
        <ele>1117</ele>
        <time>2021-12-19T11:48:59Z</time>
      </trkpt>
      <trkpt lat="48.04016" lon="6.99931">
        <ele>1115</ele>
        <time>2021-12-19T11:49:01Z</time>
      </trkpt>
      <trkpt lat="48.04033" lon="6.99926">
        <ele>1114</ele>
        <time>2021-12-19T11:49:07Z</time>
      </trkpt>
      <trkpt lat="48.04037" lon="6.99921">
        <ele>1113</ele>
        <time>2021-12-19T11:49:17Z</time>
      </trkpt>
      <trkpt lat="48.04044" lon="6.99918">
        <ele>1114</ele>
        <time>2021-12-19T11:49:58Z</time>
      </trkpt>
      <trkpt lat="48.04048" lon="6.99913">
        <ele>1113</ele>
        <time>2021-12-19T11:51:00Z</time>
      </trkpt>
      <trkpt lat="48.04049" lon="6.99917">
        <ele>1114</ele>
        <time>2021-12-19T11:51:57Z</time>
      </trkpt>
      <trkpt lat="48.04046" lon="6.99913">
        <ele>1113</ele>
        <time>2021-12-19T11:52:42Z</time>
      </trkpt>
      <trkpt lat="48.04045" lon="6.99911">
        <ele>1112</ele>
        <time>2021-12-19T11:52:45Z</time>
      </trkpt>
      <trkpt lat="48.04045" lon="6.99918">
        <ele>1114</ele>
        <time>2021-12-19T11:53:29Z</time>
      </trkpt>
      <trkpt lat="48.04048" lon="6.9992">
        <ele>1114</ele>
        <time>2021-12-19T11:54:15Z</time>
      </trkpt>
      <trkpt lat="48.04049" lon="6.99922">
        <ele>1115</ele>
        <time>2021-12-19T11:54:41Z</time>
      </trkpt>
      <trkpt lat="48.04046" lon="6.99916">
        <ele>1113</ele>
        <time>2021-12-19T11:55:06Z</time>
      </trkpt>
      <trkpt lat="48.04049" lon="6.99921">
        <ele>1115</ele>
        <time>2021-12-19T11:55:40Z</time>
      </trkpt>
      <trkpt lat="48.04072" lon="6.99919">
        <ele>1117</ele>
        <time>2021-12-19T11:56:05Z</time>
      </trkpt>
      <trkpt lat="48.04091" lon="6.99917">
        <ele>1119</ele>
        <time>2021-12-19T11:56:30Z</time>
      </trkpt>
      <trkpt lat="48.04099" lon="6.99917">
        <ele>1119</ele>
        <time>2021-12-19T11:56:55Z</time>
      </trkpt>
      <trkpt lat="48.04119" lon="6.99913">
        <ele>1118</ele>
        <time>2021-12-19T11:57:22Z</time>
      </trkpt>
      <trkpt lat="48.04124" lon="6.99915">
        <ele>1118</ele>
        <time>2021-12-19T11:57:38Z</time>
      </trkpt>
      <trkpt lat="48.04132" lon="6.99926">
        <ele>1121</ele>
        <time>2021-12-19T11:58:00Z</time>
      </trkpt>
      <trkpt lat="48.04141" lon="6.99934">
        <ele>1123</ele>
        <time>2021-12-19T11:58:21Z</time>
      </trkpt>
      <trkpt lat="48.04151" lon="6.99939">
        <ele>1125</ele>
        <time>2021-12-19T11:58:39Z</time>
      </trkpt>
      <trkpt lat="48.04169" lon="6.99944">
        <ele>1126</ele>
        <time>2021-12-19T11:59:01Z</time>
      </trkpt>
      <trkpt lat="48.04186" lon="6.99955">
        <ele>1132</ele>
        <time>2021-12-19T11:59:26Z</time>
      </trkpt>
      <trkpt lat="48.0419" lon="6.99957">
        <ele>1133</ele>
        <time>2021-12-19T11:59:37Z</time>
      </trkpt>
      <trkpt lat="48.04203" lon="6.99964">
        <ele>1136</ele>
        <time>2021-12-19T12:00:00Z</time>
      </trkpt>
      <trkpt lat="48.04218" lon="6.99965">
        <ele>1138</ele>
        <time>2021-12-19T12:00:27Z</time>
      </trkpt>
      <trkpt lat="48.04235" lon="6.99972">
        <ele>1140</ele>
        <time>2021-12-19T12:00:51Z</time>
      </trkpt>
      <trkpt lat="48.04246" lon="6.9998">
        <ele>1143</ele>
        <time>2021-12-19T12:01:11Z</time>
      </trkpt>
      <trkpt lat="48.0426" lon="6.99987">
        <ele>1145</ele>
        <time>2021-12-19T12:01:34Z</time>
      </trkpt>
      <trkpt lat="48.04279" lon="6.99997">
        <ele>1149</ele>
        <time>2021-12-19T12:02:01Z</time>
      </trkpt>
      <trkpt lat="48.04292" lon="7.00007">
        <ele>1150</ele>
        <time>2021-12-19T12:02:26Z</time>
      </trkpt>
      <trkpt lat="48.04308" lon="7.00022">
        <ele>1153</ele>
        <time>2021-12-19T12:02:51Z</time>
      </trkpt>
      <trkpt lat="48.04321" lon="7.00036">
        <ele>1155</ele>
        <time>2021-12-19T12:03:16Z</time>
      </trkpt>
      <trkpt lat="48.04326" lon="7.00056">
        <ele>1160</ele>
        <time>2021-12-19T12:03:47Z</time>
      </trkpt>
      <trkpt lat="48.04321" lon="7.00058">
        <ele>1161</ele>
        <time>2021-12-19T12:04:14Z</time>
      </trkpt>
      <trkpt lat="48.04309" lon="7.00054">
        <ele>1161</ele>
        <time>2021-12-19T12:04:36Z</time>
      </trkpt>
      <trkpt lat="48.04306" lon="7.00054">
        <ele>1162</ele>
        <time>2021-12-19T12:04:42Z</time>
      </trkpt>
      <trkpt lat="48.04305" lon="7.00066">
        <ele>1165</ele>
        <time>2021-12-19T12:05:07Z</time>
      </trkpt>
      <trkpt lat="48.04303" lon="7.00078">
        <ele>1167</ele>
        <time>2021-12-19T12:05:33Z</time>
      </trkpt>
      <trkpt lat="48.04293" lon="7.00092">
        <ele>1170</ele>
        <time>2021-12-19T12:05:55Z</time>
      </trkpt>
      <trkpt lat="48.04276" lon="7.00102">
        <ele>1172</ele>
        <time>2021-12-19T12:06:19Z</time>
      </trkpt>
      <trkpt lat="48.04264" lon="7.00107">
        <ele>1173</ele>
        <time>2021-12-19T12:06:37Z</time>
      </trkpt>
      <trkpt lat="48.04258" lon="7.00111">
        <ele>1174</ele>
        <time>2021-12-19T12:06:45Z</time>
      </trkpt>
      <trkpt lat="48.0425" lon="7.00123">
        <ele>1176</ele>
        <time>2021-12-19T12:07:03Z</time>
      </trkpt>
      <trkpt lat="48.04259" lon="7.00136">
        <ele>1177</ele>
        <time>2021-12-19T12:07:24Z</time>
      </trkpt>
      <trkpt lat="48.04266" lon="7.0015">
        <ele>1178</ele>
        <time>2021-12-19T12:07:45Z</time>
      </trkpt>
      <trkpt lat="48.04272" lon="7.00166">
        <ele>1179</ele>
        <time>2021-12-19T12:08:06Z</time>
      </trkpt>
      <trkpt lat="48.04276" lon="7.00181">
        <ele>1180</ele>
        <time>2021-12-19T12:08:25Z</time>
      </trkpt>
      <trkpt lat="48.04281" lon="7.00199">
        <ele>1181</ele>
        <time>2021-12-19T12:08:47Z</time>
      </trkpt>
      <trkpt lat="48.04286" lon="7.00214">
        <ele>1185</ele>
        <time>2021-12-19T12:09:09Z</time>
      </trkpt>
      <trkpt lat="48.04292" lon="7.00232">
        <ele>1189</ele>
        <time>2021-12-19T12:09:29Z</time>
      </trkpt>
      <trkpt lat="48.04297" lon="7.00249">
        <ele>1192</ele>
        <time>2021-12-19T12:09:52Z</time>
      </trkpt>
      <trkpt lat="48.043" lon="7.00265">
        <ele>1195</ele>
        <time>2021-12-19T12:10:17Z</time>
      </trkpt>
      <trkpt lat="48.04299" lon="7.00264">
        <ele>1195</ele>
        <time>2021-12-19T12:10:44Z</time>
      </trkpt>
      <trkpt lat="48.04292" lon="7.00263">
        <ele>1195</ele>
        <time>2021-12-19T12:11:04Z</time>
      </trkpt>
      <trkpt lat="48.04291" lon="7.00263">
        <ele>1196</ele>
        <time>2021-12-19T12:11:28Z</time>
      </trkpt>
      <trkpt lat="48.04287" lon="7.00264">
        <ele>1196</ele>
        <time>2021-12-19T12:11:52Z</time>
      </trkpt>
      <trkpt lat="48.04283" lon="7.00262">
        <ele>1197</ele>
        <time>2021-12-19T12:12:03Z</time>
      </trkpt>
      <trkpt lat="48.04281" lon="7.0027">
        <ele>1198</ele>
        <time>2021-12-19T12:12:16Z</time>
      </trkpt>
      <trkpt lat="48.04289" lon="7.00277">
        <ele>1198</ele>
        <time>2021-12-19T12:12:27Z</time>
      </trkpt>
      <trkpt lat="48.04294" lon="7.00281">
        <ele>1198</ele>
        <time>2021-12-19T12:12:35Z</time>
      </trkpt>
      <trkpt lat="48.04304" lon="7.0029">
        <ele>1198</ele>
        <time>2021-12-19T12:12:50Z</time>
      </trkpt>
      <trkpt lat="48.04313" lon="7.00311">
        <ele>1200</ele>
        <time>2021-12-19T12:13:14Z</time>
      </trkpt>
      <trkpt lat="48.04324" lon="7.00335">
        <ele>1202</ele>
        <time>2021-12-19T12:13:39Z</time>
      </trkpt>
      <trkpt lat="48.04334" lon="7.00354">
        <ele>1204</ele>
        <time>2021-12-19T12:13:56Z</time>
      </trkpt>
      <trkpt lat="48.04339" lon="7.0036">
        <ele>1204</ele>
        <time>2021-12-19T12:14:06Z</time>
      </trkpt>
      <trkpt lat="48.04341" lon="7.00363">
        <ele>1205</ele>
        <time>2021-12-19T12:14:09Z</time>
      </trkpt>
      <trkpt lat="48.04351" lon="7.00378">
        <ele>1206</ele>
        <time>2021-12-19T12:14:27Z</time>
      </trkpt>
      <trkpt lat="48.04356" lon="7.00388">
        <ele>1207</ele>
        <time>2021-12-19T12:14:38Z</time>
      </trkpt>
      <trkpt lat="48.04366" lon="7.00396">
        <ele>1206</ele>
        <time>2021-12-19T12:14:49Z</time>
      </trkpt>
      <trkpt lat="48.04384" lon="7.00424">
        <ele>1207</ele>
        <time>2021-12-19T12:15:20Z</time>
      </trkpt>
      <trkpt lat="48.04394" lon="7.00444">
        <ele>1208</ele>
        <time>2021-12-19T12:15:48Z</time>
      </trkpt>
      <trkpt lat="48.04403" lon="7.00464">
        <ele>1211</ele>
        <time>2021-12-19T12:16:15Z</time>
      </trkpt>
      <trkpt lat="48.04413" lon="7.00483">
        <ele>1215</ele>
        <time>2021-12-19T12:16:40Z</time>
      </trkpt>
      <trkpt lat="48.04424" lon="7.00505">
        <ele>1219</ele>
        <time>2021-12-19T12:17:08Z</time>
      </trkpt>
      <trkpt lat="48.04433" lon="7.00523">
        <ele>1220</ele>
        <time>2021-12-19T12:17:33Z</time>
      </trkpt>
      <trkpt lat="48.04442" lon="7.00542">
        <ele>1221</ele>
        <time>2021-12-19T12:17:57Z</time>
      </trkpt>
      <trkpt lat="48.04452" lon="7.00562">
        <ele>1222</ele>
        <time>2021-12-19T12:18:23Z</time>
      </trkpt>
      <trkpt lat="48.0446" lon="7.00584">
        <ele>1226</ele>
        <time>2021-12-19T12:18:52Z</time>
      </trkpt>
      <trkpt lat="48.04471" lon="7.00609">
        <ele>1229</ele>
        <time>2021-12-19T12:19:20Z</time>
      </trkpt>
      <trkpt lat="48.04482" lon="7.0063">
        <ele>1231</ele>
        <time>2021-12-19T12:19:48Z</time>
      </trkpt>
      <trkpt lat="48.04496" lon="7.00652">
        <ele>1234</ele>
        <time>2021-12-19T12:20:18Z</time>
      </trkpt>
      <trkpt lat="48.04513" lon="7.00669">
        <ele>1234</ele>
        <time>2021-12-19T12:20:47Z</time>
      </trkpt>
      <trkpt lat="48.04524" lon="7.00677">
        <ele>1233</ele>
        <time>2021-12-19T12:21:03Z</time>
      </trkpt>
      <trkpt lat="48.04538" lon="7.00687">
        <ele>1232</ele>
        <time>2021-12-19T12:21:24Z</time>
      </trkpt>
      <trkpt lat="48.04553" lon="7.00705">
        <ele>1231</ele>
        <time>2021-12-19T12:21:51Z</time>
      </trkpt>
      <trkpt lat="48.04567" lon="7.00723">
        <ele>1231</ele>
        <time>2021-12-19T12:22:13Z</time>
      </trkpt>
      <trkpt lat="48.04583" lon="7.00742">
        <ele>1230</ele>
        <time>2021-12-19T12:22:39Z</time>
      </trkpt>
      <trkpt lat="48.04605" lon="7.00767">
        <ele>1231</ele>
        <time>2021-12-19T12:23:11Z</time>
      </trkpt>
      <trkpt lat="48.04622" lon="7.00779">
        <ele>1233</ele>
        <time>2021-12-19T12:23:34Z</time>
      </trkpt>
      <trkpt lat="48.04638" lon="7.00787">
        <ele>1234</ele>
        <time>2021-12-19T12:23:57Z</time>
      </trkpt>
      <trkpt lat="48.04651" lon="7.00793">
        <ele>1234</ele>
        <time>2021-12-19T12:24:17Z</time>
      </trkpt>
      <trkpt lat="48.04673" lon="7.00799">
        <ele>1233</ele>
        <time>2021-12-19T12:24:47Z</time>
      </trkpt>
      <trkpt lat="48.04689" lon="7.00803">
        <ele>1231</ele>
        <time>2021-12-19T12:25:08Z</time>
      </trkpt>
      <trkpt lat="48.04706" lon="7.00812">
        <ele>1230</ele>
        <time>2021-12-19T12:25:32Z</time>
      </trkpt>
      <trkpt lat="48.04725" lon="7.00823">
        <ele>1230</ele>
        <time>2021-12-19T12:25:57Z</time>
      </trkpt>
      <trkpt lat="48.04745" lon="7.00832">
        <ele>1229</ele>
        <time>2021-12-19T12:26:22Z</time>
      </trkpt>
      <trkpt lat="48.04758" lon="7.00842">
        <ele>1229</ele>
        <time>2021-12-19T12:26:39Z</time>
      </trkpt>
      <trkpt lat="48.04777" lon="7.00849">
        <ele>1229</ele>
        <time>2021-12-19T12:27:02Z</time>
      </trkpt>
      <trkpt lat="48.04795" lon="7.00858">
        <ele>1229</ele>
        <time>2021-12-19T12:27:26Z</time>
      </trkpt>
      <trkpt lat="48.04813" lon="7.00866">
        <ele>1228</ele>
        <time>2021-12-19T12:27:47Z</time>
      </trkpt>
      <trkpt lat="48.04835" lon="7.00884">
        <ele>1228</ele>
        <time>2021-12-19T12:28:15Z</time>
      </trkpt>
      <trkpt lat="48.0485" lon="7.00891">
        <ele>1227</ele>
        <time>2021-12-19T12:28:34Z</time>
      </trkpt>
      <trkpt lat="48.04864" lon="7.00897">
        <ele>1226</ele>
        <time>2021-12-19T12:28:51Z</time>
      </trkpt>
      <trkpt lat="48.04878" lon="7.00903">
        <ele>1224</ele>
        <time>2021-12-19T12:29:07Z</time>
      </trkpt>
      <trkpt lat="48.04886" lon="7.00916">
        <ele>1224</ele>
        <time>2021-12-19T12:29:25Z</time>
      </trkpt>
      <trkpt lat="48.04888" lon="7.00921">
        <ele>1225</ele>
        <time>2021-12-19T12:29:54Z</time>
      </trkpt>
      <trkpt lat="48.04889" lon="7.00921">
        <ele>1224</ele>
        <time>2021-12-19T12:30:23Z</time>
      </trkpt>
      <trkpt lat="48.04892" lon="7.00915">
        <ele>1223</ele>
        <time>2021-12-19T12:31:10Z</time>
      </trkpt>
      <trkpt lat="48.04889" lon="7.00917">
        <ele>1224</ele>
        <time>2021-12-19T12:32:00Z</time>
      </trkpt>
      <trkpt lat="48.04885" lon="7.00917">
        <ele>1224</ele>
        <time>2021-12-19T12:32:57Z</time>
      </trkpt>
      <trkpt lat="48.04888" lon="7.00916">
        <ele>1224</ele>
        <time>2021-12-19T12:34:07Z</time>
      </trkpt>
      <trkpt lat="48.04891" lon="7.00923">
        <ele>1224</ele>
        <time>2021-12-19T12:34:31Z</time>
      </trkpt>
      <trkpt lat="48.04887" lon="7.00923">
        <ele>1225</ele>
        <time>2021-12-19T12:35:03Z</time>
      </trkpt>
      <trkpt lat="48.04891" lon="7.0092">
        <ele>1224</ele>
        <time>2021-12-19T12:35:38Z</time>
      </trkpt>
      <trkpt lat="48.04892" lon="7.00921">
        <ele>1224</ele>
        <time>2021-12-19T12:35:39Z</time>
      </trkpt>
      <trkpt lat="48.04894" lon="7.00923">
        <ele>1224</ele>
        <time>2021-12-19T12:35:42Z</time>
      </trkpt>
      <trkpt lat="48.04914" lon="7.00922">
        <ele>1223</ele>
        <time>2021-12-19T12:35:50Z</time>
      </trkpt>
      <trkpt lat="48.04928" lon="7.00916">
        <ele>1220</ele>
        <time>2021-12-19T12:35:57Z</time>
      </trkpt>
      <trkpt lat="48.04928" lon="7.00915">
        <ele>1219</ele>
        <time>2021-12-19T12:36:02Z</time>
      </trkpt>
      <trkpt lat="48.04931" lon="7.00914">
        <ele>1219</ele>
        <time>2021-12-19T12:36:04Z</time>
      </trkpt>
      <trkpt lat="48.04938" lon="7.00902">
        <ele>1215</ele>
        <time>2021-12-19T12:36:08Z</time>
      </trkpt>
      <trkpt lat="48.04939" lon="7.00887">
        <ele>1212</ele>
        <time>2021-12-19T12:36:12Z</time>
      </trkpt>
      <trkpt lat="48.04944" lon="7.00867">
        <ele>1208</ele>
        <time>2021-12-19T12:36:17Z</time>
      </trkpt>
      <trkpt lat="48.04944" lon="7.00852">
        <ele>1205</ele>
        <time>2021-12-19T12:36:20Z</time>
      </trkpt>
      <trkpt lat="48.04946" lon="7.00841">
        <ele>1202</ele>
        <time>2021-12-19T12:36:22Z</time>
      </trkpt>
      <trkpt lat="48.04951" lon="7.00813">
        <ele>1197</ele>
        <time>2021-12-19T12:36:28Z</time>
      </trkpt>
      <trkpt lat="48.04952" lon="7.00799">
        <ele>1194</ele>
        <time>2021-12-19T12:36:31Z</time>
      </trkpt>
      <trkpt lat="48.04958" lon="7.0078">
        <ele>1191</ele>
        <time>2021-12-19T12:36:35Z</time>
      </trkpt>
      <trkpt lat="48.04963" lon="7.00768">
        <ele>1188</ele>
        <time>2021-12-19T12:36:38Z</time>
      </trkpt>
      <trkpt lat="48.04966" lon="7.00749">
        <ele>1184</ele>
        <time>2021-12-19T12:36:41Z</time>
      </trkpt>
      <trkpt lat="48.04966" lon="7.00729">
        <ele>1179</ele>
        <time>2021-12-19T12:36:44Z</time>
      </trkpt>
      <trkpt lat="48.04974" lon="7.00724">
        <ele>1177</ele>
        <time>2021-12-19T12:36:46Z</time>
      </trkpt>
      <trkpt lat="48.04978" lon="7.00704">
        <ele>1172</ele>
        <time>2021-12-19T12:36:49Z</time>
      </trkpt>
      <trkpt lat="48.04974" lon="7.00699">
        <ele>1170</ele>
        <time>2021-12-19T12:36:50Z</time>
      </trkpt>
      <trkpt lat="48.04976" lon="7.0068">
        <ele>1166</ele>
        <time>2021-12-19T12:36:54Z</time>
      </trkpt>
      <trkpt lat="48.04982" lon="7.00675">
        <ele>1164</ele>
        <time>2021-12-19T12:36:56Z</time>
      </trkpt>
      <trkpt lat="48.04984" lon="7.00669">
        <ele>1163</ele>
        <time>2021-12-19T12:36:57Z</time>
      </trkpt>
      <trkpt lat="48.04983" lon="7.00659">
        <ele>1161</ele>
        <time>2021-12-19T12:36:59Z</time>
      </trkpt>
      <trkpt lat="48.04984" lon="7.00633">
        <ele>1156</ele>
        <time>2021-12-19T12:37:05Z</time>
      </trkpt>
      <trkpt lat="48.04983" lon="7.00619">
        <ele>1152</ele>
        <time>2021-12-19T12:37:07Z</time>
      </trkpt>
      <trkpt lat="48.04986" lon="7.00605">
        <ele>1149</ele>
        <time>2021-12-19T12:37:10Z</time>
      </trkpt>
      <trkpt lat="48.04985" lon="7.00591">
        <ele>1145</ele>
        <time>2021-12-19T12:37:12Z</time>
      </trkpt>
      <trkpt lat="48.04993" lon="7.0058">
        <ele>1142</ele>
        <time>2021-12-19T12:37:15Z</time>
      </trkpt>
      <trkpt lat="48.04993" lon="7.00563">
        <ele>1138</ele>
        <time>2021-12-19T12:37:18Z</time>
      </trkpt>
      <trkpt lat="48.04995" lon="7.00558">
        <ele>1136</ele>
        <time>2021-12-19T12:37:19Z</time>
      </trkpt>
      <trkpt lat="48.04997" lon="7.00534">
        <ele>1130</ele>
        <time>2021-12-19T12:37:24Z</time>
      </trkpt>
      <trkpt lat="48.05002" lon="7.00518">
        <ele>1126</ele>
        <time>2021-12-19T12:37:27Z</time>
      </trkpt>
      <trkpt lat="48.05004" lon="7.00517">
        <ele>1126</ele>
        <time>2021-12-19T12:37:30Z</time>
      </trkpt>
      <trkpt lat="48.05003" lon="7.00516">
        <ele>1126</ele>
        <time>2021-12-19T12:37:33Z</time>
      </trkpt>
      <trkpt lat="48.05004" lon="7.00518">
        <ele>1126</ele>
        <time>2021-12-19T12:37:36Z</time>
      </trkpt>
      <trkpt lat="48.05005" lon="7.00518">
        <ele>1126</ele>
        <time>2021-12-19T12:37:38Z</time>
      </trkpt>
      <trkpt lat="48.05005" lon="7.00518">
        <ele>1126</ele>
        <time>2021-12-19T12:37:42Z</time>
      </trkpt>
      <trkpt lat="48.05009" lon="7.00483">
        <ele>1118</ele>
        <time>2021-12-19T12:37:51Z</time>
      </trkpt>
      <trkpt lat="48.05016" lon="7.0046">
        <ele>1114</ele>
        <time>2021-12-19T12:37:56Z</time>
      </trkpt>
      <trkpt lat="48.05017" lon="7.00447">
        <ele>1112</ele>
        <time>2021-12-19T12:37:58Z</time>
      </trkpt>
      <trkpt lat="48.05018" lon="7.00443">
        <ele>1111</ele>
        <time>2021-12-19T12:37:59Z</time>
      </trkpt>
      <trkpt lat="48.0502" lon="7.00424">
        <ele>1107</ele>
        <time>2021-12-19T12:38:03Z</time>
      </trkpt>
      <trkpt lat="48.05022" lon="7.00418">
        <ele>1105</ele>
        <time>2021-12-19T12:38:05Z</time>
      </trkpt>
      <trkpt lat="48.05023" lon="7.00409">
        <ele>1103</ele>
        <time>2021-12-19T12:38:07Z</time>
      </trkpt>
      <trkpt lat="48.05031" lon="7.00386">
        <ele>1099</ele>
        <time>2021-12-19T12:38:12Z</time>
      </trkpt>
      <trkpt lat="48.05036" lon="7.00369">
        <ele>1097</ele>
        <time>2021-12-19T12:38:16Z</time>
      </trkpt>
      <trkpt lat="48.05035" lon="7.00351">
        <ele>1094</ele>
        <time>2021-12-19T12:38:20Z</time>
      </trkpt>
      <trkpt lat="48.05035" lon="7.00347">
        <ele>1093</ele>
        <time>2021-12-19T12:38:22Z</time>
      </trkpt>
      <trkpt lat="48.05035" lon="7.00346">
        <ele>1093</ele>
        <time>2021-12-19T12:38:25Z</time>
      </trkpt>
      <trkpt lat="48.05034" lon="7.00344">
        <ele>1093</ele>
        <time>2021-12-19T12:38:30Z</time>
      </trkpt>
      <trkpt lat="48.05034" lon="7.00343">
        <ele>1093</ele>
        <time>2021-12-19T12:38:32Z</time>
      </trkpt>
      <trkpt lat="48.05036" lon="7.00317">
        <ele>1088</ele>
        <time>2021-12-19T12:38:39Z</time>
      </trkpt>
      <trkpt lat="48.0504" lon="7.00288">
        <ele>1082</ele>
        <time>2021-12-19T12:38:46Z</time>
      </trkpt>
      <trkpt lat="48.05039" lon="7.00267">
        <ele>1079</ele>
        <time>2021-12-19T12:38:51Z</time>
      </trkpt>
      <trkpt lat="48.05038" lon="7.00262">
        <ele>1078</ele>
        <time>2021-12-19T12:38:52Z</time>
      </trkpt>
      <trkpt lat="48.05037" lon="7.00253">
        <ele>1077</ele>
        <time>2021-12-19T12:39:01Z</time>
      </trkpt>
      <trkpt lat="48.05037" lon="7.00251">
        <ele>1077</ele>
        <time>2021-12-19T12:39:07Z</time>
      </trkpt>
      <trkpt lat="48.05037" lon="7.00219">
        <ele>1072</ele>
        <time>2021-12-19T12:39:18Z</time>
      </trkpt>
      <trkpt lat="48.05036" lon="7.00215">
        <ele>1072</ele>
        <time>2021-12-19T12:39:19Z</time>
      </trkpt>
      <trkpt lat="48.05033" lon="7.00203">
        <ele>1070</ele>
        <time>2021-12-19T12:39:22Z</time>
      </trkpt>
      <trkpt lat="48.0503" lon="7.00179">
        <ele>1067</ele>
        <time>2021-12-19T12:39:28Z</time>
      </trkpt>
      <trkpt lat="48.05036" lon="7.00167">
        <ele>1066</ele>
        <time>2021-12-19T12:39:35Z</time>
      </trkpt>
      <trkpt lat="48.05036" lon="7.00166">
        <ele>1065</ele>
        <time>2021-12-19T12:39:42Z</time>
      </trkpt>
      <trkpt lat="48.05036" lon="7.00165">
        <ele>1065</ele>
        <time>2021-12-19T12:39:44Z</time>
      </trkpt>
      <trkpt lat="48.05038" lon="7.00152">
        <ele>1065</ele>
        <time>2021-12-19T12:40:03Z</time>
      </trkpt>
      <trkpt lat="48.05041" lon="7.00154">
        <ele>1065</ele>
        <time>2021-12-19T12:40:45Z</time>
      </trkpt>
      <trkpt lat="48.05041" lon="7.00153">
        <ele>1065</ele>
        <time>2021-12-19T12:41:04Z</time>
      </trkpt>
      <trkpt lat="48.05044" lon="7.00156">
        <ele>1065</ele>
        <time>2021-12-19T12:41:26Z</time>
      </trkpt>
      <trkpt lat="48.05056" lon="7.0016">
        <ele>1065</ele>
        <time>2021-12-19T12:41:51Z</time>
      </trkpt>
      <trkpt lat="48.05057" lon="7.00162">
        <ele>1065</ele>
        <time>2021-12-19T12:42:22Z</time>
      </trkpt>
      <trkpt lat="48.05057" lon="7.00162">
        <ele>1065</ele>
        <time>2021-12-19T12:43:17Z</time>
      </trkpt>
      <trkpt lat="48.05056" lon="7.00163">
        <ele>1065</ele>
        <time>2021-12-19T12:43:29Z</time>
      </trkpt>
    </trkseg>
  </trk>
</gpx>